Observation data for Crane on 03/23/2019      Previous  Date  Next       Current Mesonet Observations  Soil Data  Daily Summary Page  Observations in Plain Language
KCR2 230500Z 17007KT 17/12 A30 RMK A01 T01650123  RH  076%=      5-min Rain = 0
KCR2 230501Z 18007KT 17/12 A30 RMK A01 T01650123  RH  076%=      5-min Rain = 0
KCR2 230502Z 17007KT 17/12 A30 RMK A01 T01650123  RH  076%=      5-min Rain = 0
KCR2 230503Z 17007KT 17/12 A30 RMK A01 T01650123  RH  076%=      5-min Rain = 0
KCR2 230504Z 17008KT 17/12 A30 RMK A01 T01650123  RH  076%=      5-min Rain = 0
KCR2 230505Z 17007KT 17/12 A30 RMK A01 T01650123  RH  076%=      5-min Rain = 0
KCR2 230506Z 17007KT 17/12 A30 RMK A01 T01660123  RH  076%=      5-min Rain = 0
KCR2 230507Z 17006KT 17/12 A30 RMK A01 T01650123  RH  076%=      5-min Rain = 0
KCR2 230508Z 17007KT 17/12 A30 RMK A01 T01660124  RH  076%=      5-min Rain = 0
KCR2 230509Z 17007KT 17/12 A3001 RMK A01 T01650124  RH  076%=      5-min Rain = 0
KCR2 230510Z 17007KT 17/12 A3001 RMK A01 T01660123  RH  076%=      5-min Rain = 0
KCR2 230511Z 17007KT 17/12 A3001 RMK A01 T01660124  RH  076%=      5-min Rain = 0
KCR2 230512Z 17008KT 17/12 A3001 RMK A01 T01650123  RH  076%=      5-min Rain = 0
KCR2 230513Z 17006KT 17/12 A3001 RMK A01 T01650123  RH  076%=      5-min Rain = 0
KCR2 230514Z 17006KT 17/12 A3001 RMK A01 T01660124  RH  076%=      5-min Rain = 0
KCR2 230515Z 18006KT 17/12 A3001 RMK A01 T01650124  RH  077%=      5-min Rain = 0
KCR2 230516Z 17007KT 17/12 A3001 RMK A01 T01650124  RH  077%=      5-min Rain = 0
KCR2 230517Z 17005KT 17/12 A3001 RMK A01 T01650124  RH  077%=      5-min Rain = 0
KCR2 230518Z 18006KT 17/12 A3001 RMK A01 T01650124  RH  077%=      5-min Rain = 0
KCR2 230519Z 18006KT 17/13 A3001 RMK A01 T01650125  RH  077%=      5-min Rain = 0
KCR2 230520Z 18006KT 17/13 A3001 RMK A01 T01650125  RH  077%=      5-min Rain = 0
KCR2 230521Z 18007KT 17/12 A3001 RMK A01 T01650124  RH  077%=      5-min Rain = 0
KCR2 230522Z 18008KT 17/12 A3001 RMK A01 T01650124  RH  077%=      5-min Rain = 0
KCR2 230523Z 18009KT 16/12 A3001 RMK A01 T01640124  RH  077%=      5-min Rain = 0
KCR2 230524Z 18008KT 17/12 A3001 RMK A01 T01650124  RH  077%=      5-min Rain = 0
KCR2 230525Z 17007KT 17/12 A3001 RMK A01 T01650124  RH  077%=      5-min Rain = 0
KCR2 230526Z 17007KT 17/13 A3001 RMK A01 T01650125  RH  077%=      5-min Rain = 0
KCR2 230527Z 18008KT 17/13 A3001 RMK A01 T01650125  RH  077%=      5-min Rain = 0
KCR2 230528Z 18008KT 17/13 A3001 RMK A01 T01650125  RH  077%=      5-min Rain = 0
KCR2 230529Z 18009KT 17/13 A3001 RMK A01 T01650125  RH  077%=      5-min Rain = 0
KCR2 230530Z 17010KT 17/12 A3001 RMK A01 T01650124  RH  077%=      5-min Rain = 0
KCR2 230531Z 18007KT 17/13 A3001 RMK A01 T01650125  RH  077%=      5-min Rain = 0
KCR2 230532Z 18007KT 17/13 A3001 RMK A01 T01650125  RH  077%=      5-min Rain = 0
KCR2 230533Z 18008KT 17/13 A3001 RMK A01 T01650125  RH  077%=      5-min Rain = 0
KCR2 230534Z 18008KT 17/13 A3001 RMK A01 T01650125  RH  077%=      5-min Rain = 0
KCR2 230535Z 18009KT 17/13 A3001 RMK A01 T01650125  RH  077%=      5-min Rain = 0
KCR2 230536Z 18009KT 17/13 A3001 RMK A01 T01650126  RH  077%=      5-min Rain = 0
KCR2 230537Z 18008KT 17/13 A3001 RMK A01 T01650125  RH  078%=      5-min Rain = 0
KCR2 230538Z 18008KT 17/13 A3001 RMK A01 T01650126  RH  078%=      5-min Rain = 0
KCR2 230539Z 17007KT 17/13 A3001 RMK A01 T01650126  RH  078%=      5-min Rain = 0
KCR2 230540Z 17006KT 17/13 A3001 RMK A01 T01650126  RH  078%=      5-min Rain = 0
KCR2 230541Z 17006KT 16/13 A3001 RMK A01 T01640126  RH  078%=      5-min Rain = 0
KCR2 230542Z 18007KT 16/13 A3001 RMK A01 T01640126  RH  078%=      5-min Rain = 0
KCR2 230543Z 19005KT 16/13 A3001 RMK A01 T01640126  RH  078%=      5-min Rain = 0
KCR2 230544Z 18006KT 16/13 A3001 RMK A01 T01640126  RH  078%=      5-min Rain = 0
KCR2 230545Z 18007KT 16/13 A3001 RMK A01 T01640125  RH  078%=      5-min Rain = 0
KCR2 230546Z 18007KT 16/13 A3001 RMK A01 T01640125  RH  078%=      5-min Rain = 0
KCR2 230547Z 18007KT 16/13 A3001 RMK A01 T01640125  RH  078%=      5-min Rain = 0
KCR2 230548Z 18006KT 16/13 A3001 RMK A01 T01640126  RH  078%=      5-min Rain = 0
KCR2 230549Z 18005KT 16/13 A3001 RMK A01 T01640126  RH  078%=      5-min Rain = 0
KCR2 230550Z 18007KT 16/13 A3001 RMK A01 T01640126  RH  078%=      5-min Rain = 0
KCR2 230551Z 18006KT 16/13 A3001 RMK A01 T01640126  RH  078%=      5-min Rain = 0
KCR2 230552Z 18006KT 16/13 A3001 RMK A01 T01640126  RH  078%=      5-min Rain = 0
KCR2 230553Z 18007KT 16/13 A3001 RMK A01 T01640126  RH  078%=      5-min Rain = 0
KCR2 230554Z 18007KT 16/13 A3001 RMK A01 T01640126  RH  078%=      5-min Rain = 0
KCR2 230555Z 18006KT 17/13 A3001 RMK A01 T01650127  RH  078%=      5-min Rain = 0
KCR2 230556Z 19004KT 17/13 A3001 RMK A01 T01650127  RH  078%=      5-min Rain = 0
KCR2 230557Z 18006KT 16/13 A3001 RMK A01 T01640127  RH  079%=      5-min Rain = 0
KCR2 230558Z 18006KT 16/13 A3001 RMK A01 T01640127  RH  079%=      5-min Rain = 0
KCR2 230559Z 18007KT 16/13 A3001 RMK A01 T01630127  RH  079%=      5-min Rain = 0
KCR2 230600Z 18007KT 16/13 A3001 RMK A01 T01640127  RH  079%=      5-min Rain = 0
KCR2 230601Z 18006KT 16/13 A3001 RMK A01 T01640127  RH  079%=      5-min Rain = 0
KCR2 230602Z 18008KT 16/13 A3001 RMK A01 T01640127  RH  079%=      5-min Rain = 0
KCR2 230603Z 18007KT 16/13 A3001 RMK A01 T01640127  RH  079%=      5-min Rain = 0
KCR2 230604Z 18007KT 16/13 A3001 RMK A01 T01640127  RH  079%=      5-min Rain = 0
KCR2 230605Z 18007KT 16/13 A3001 RMK A01 T01640127  RH  079%=      5-min Rain = 0
KCR2 230606Z 18007KT 16/13 A3001 RMK A01 T01640127  RH  079%=      5-min Rain = 0
KCR2 230607Z 18006KT 16/13 A3001 RMK A01 T01640127  RH  079%=      5-min Rain = 0
KCR2 230608Z 17006KT 16/13 A3001 RMK A01 T01640126  RH  079%=      5-min Rain = 0
KCR2 230609Z 17006KT 16/13 A3001 RMK A01 T01640127  RH  079%=      5-min Rain = 0
KCR2 230610Z 18006KT 16/13 A3001 RMK A01 T01630127  RH  079%=      5-min Rain = 0
KCR2 230611Z 19009KT 16/13 A3001 RMK A01 T01620127  RH  080%=      5-min Rain = 0
KCR2 230612Z 19011KT 16/13 A3001 RMK A01 T01620127  RH  080%=      5-min Rain = 0
KCR2 230613Z 19010KT 16/13 A3001 RMK A01 T01630128  RH  079%=      5-min Rain = 0
KCR2 230614Z 18008KT 16/13 A3001 RMK A01 T01640127  RH  079%=      5-min Rain = 0
KCR2 230615Z 16006KT 16/13 A3001 RMK A01 T01640127  RH  079%=      5-min Rain = 0
KCR2 230616Z 17007KT 16/13 A30 RMK A01 T01640127  RH  079%=      5-min Rain = 0
KCR2 230617Z 16006KT 17/13 A30 RMK A01 T01650127  RH  078%=      5-min Rain = 0
KCR2 230618Z 18005KT 16/13 A30 RMK A01 T01640127  RH  078%=      5-min Rain = 0
KCR2 230619Z 17005KT 16/13 A3001 RMK A01 T01640128  RH  079%=      5-min Rain = 0
KCR2 230620Z 18004KT 16/13 A3001 RMK A01 T01630128  RH  079%=      5-min Rain = 0
KCR2 230621Z 17004KT 16/13 A3001 RMK A01 T01620128  RH  080%=      5-min Rain = 0
KCR2 230622Z 18005KT 16/13 A3001 RMK A01 T01620128  RH  080%=      5-min Rain = 0
KCR2 230623Z 18007KT 16/13 A30 RMK A01 T01610127  RH  080%=      5-min Rain = 0
KCR2 230624Z 18007KT 16/13 A30 RMK A01 T01620128  RH  080%=      5-min Rain = 0
KCR2 230625Z 18008KT 16/13 A30 RMK A01 T01620128  RH  080%=      5-min Rain = 0
KCR2 230626Z 17008KT 16/13 A30 RMK A01 T01620128  RH  080%=      5-min Rain = 0
KCR2 230627Z 17008KT 16/13 A30 RMK A01 T01620128  RH  080%=      5-min Rain = 0
KCR2 230628Z 17009KT 16/13 A30 RMK A01 T01620128  RH  080%=      5-min Rain = 0
KCR2 230629Z 17008KT 16/13 A30 RMK A01 T01610128  RH  081%=      5-min Rain = 0
KCR2 230630Z 17009KT 16/13 A30 RMK A01 T01610128  RH  081%=      5-min Rain = 0
KCR2 230631Z 17009KT 16/13 A30 RMK A01 T01610128  RH  081%=      5-min Rain = 0
KCR2 230632Z 17010KT 16/13 A30 RMK A01 T01610128  RH  081%=      5-min Rain = 0
KCR2 230633Z 17010KT 16/13 A30 RMK A01 T01610127  RH  080%=      5-min Rain = 0
KCR2 230634Z 18010KT 16/13 A30 RMK A01 T01620128  RH  080%=      5-min Rain = 0
KCR2 230635Z 17009KT 16/13 A30 RMK A01 T01610127  RH  080%=      5-min Rain = 0
KCR2 230636Z 17007KT 16/13 A30 RMK A01 T01610128  RH  080%=      5-min Rain = 0
KCR2 230637Z 17009KT 16/13 A30 RMK A01 T01610128  RH  081%=      5-min Rain = 0
KCR2 230638Z 17009KT 16/13 A30 RMK A01 T01600128  RH  081%=      5-min Rain = 0
KCR2 230639Z 17008KT 16/13 A30 RMK A01 T01600128  RH  081%=      5-min Rain = 0
KCR2 230640Z 17008KT 16/13 A30 RMK A01 T01600128  RH  081%=      5-min Rain = 0
KCR2 230641Z 17007KT 16/13 A2999 RMK A01 T01600128  RH  081%=      5-min Rain = 0
KCR2 230642Z 16007KT 16/13 A2999 RMK A01 T01590128  RH  081%=      5-min Rain = 0
KCR2 230643Z 17006KT 16/13 A2999 RMK A01 T01580127  RH  082%=      5-min Rain = 0
KCR2 230644Z 17006KT 16/13 A2999 RMK A01 T01570127  RH  082%=      5-min Rain = 0
KCR2 230645Z 17006KT 16/13 A2999 RMK A01 T01570127  RH  082%=      5-min Rain = 0
KCR2 230646Z 17007KT 16/13 A2999 RMK A01 T01560127  RH  083%=      5-min Rain = 0
KCR2 230647Z 17006KT 16/13 A2999 RMK A01 T01560127  RH  083%=      5-min Rain = 0
KCR2 230648Z 17007KT 16/13 A2999 RMK A01 T01560127  RH  083%=      5-min Rain = 0
KCR2 230649Z 18010KT 16/13 A2999 RMK A01 T01570128  RH  083%=      5-min Rain = 0
KCR2 230650Z 18010KT 16/13 A2999 RMK A01 T01580128  RH  083%=      5-min Rain = 0
KCR2 230651Z 17008KT 16/13 A2999 RMK A01 T01590128  RH  082%=      5-min Rain = 0
KCR2 230652Z 17007KT 16/13 A2999 RMK A01 T01590128  RH  082%=      5-min Rain = 0
KCR2 230653Z 19007KT 16/13 A2999 RMK A01 T01590128  RH  082%=      5-min Rain = 0
KCR2 230654Z 19006KT 16/13 A30 RMK A01 T01600128  RH  082%=      5-min Rain = 0
KCR2 230655Z 18006KT 16/13 A30 RMK A01 T01590128  RH  082%=      5-min Rain = 0
KCR2 230656Z 19006KT 16/13 A30 RMK A01 T01590128  RH  082%=      5-min Rain = 0
KCR2 230657Z 18007KT 16/13 A30 RMK A01 T01580128  RH  082%=      5-min Rain = 0
KCR2 230658Z 18008G13KT 16/13 A30 RMK A01 T01580128  RH  083%=      5-min Rain = 0
KCR2 230659Z 18011KT 16/13 A30 RMK A01 T01580128  RH  083%=      5-min Rain = 0
KCR2 230700Z 17009KT 16/13 A30 RMK A01 T01590129  RH  082%=      5-min Rain = 0
KCR2 230701Z 18009KT 16/13 A2999 RMK A01 T01590129  RH  082%=      5-min Rain = 0
KCR2 230702Z 18010KT 16/13 A2999 RMK A01 T01590129  RH  082%=      5-min Rain = 0
KCR2 230703Z 18011KT 16/13 A2999 RMK A01 T01590129  RH  082%=      5-min Rain = 0
KCR2 230704Z 18010KT 16/13 A2999 RMK A01 T01590129  RH  082%=      5-min Rain = 0
KCR2 230705Z 17011KT 16/13 A2999 RMK A01 T01590129  RH  082%=      5-min Rain = 0
KCR2 230706Z 17011KT 16/13 A2999 RMK A01 T01590129  RH  083%=      5-min Rain = 0
KCR2 230707Z 17011KT 16/13 A2999 RMK A01 T01580129  RH  083%=      5-min Rain = 0
KCR2 230708Z 17012KT 16/13 A2999 RMK A01 T01580129  RH  083%=      5-min Rain = 0
KCR2 230709Z 17012KT 16/13 A2999 RMK A01 T01570129  RH  083%=      5-min Rain = 0
KCR2 230710Z 17010KT 16/13 A2999 RMK A01 T01570129  RH  083%=      5-min Rain = 0
KCR2 230711Z 18011KT 16/13 A2999 RMK A01 T01570129  RH  083%=      5-min Rain = 0
KCR2 230712Z 17011KT 16/13 A2999 RMK A01 T01570129  RH  083%=      5-min Rain = 0
KCR2 230713Z 17012KT 16/13 A2999 RMK A01 T01580129  RH  083%=      5-min Rain = 0
KCR2 230714Z 17010KT 16/13 A2999 RMK A01 T01580129  RH  083%=      5-min Rain = 0
KCR2 230715Z 18010KT 16/13 A2999 RMK A01 T01580129  RH  083%=      5-min Rain = 0
KCR2 230716Z 18008KT 16/13 A2999 RMK A01 T01570129  RH  083%=      5-min Rain = 0
KCR2 230717Z 18012KT 16/13 A2999 RMK A01 T01560128  RH  084%=      5-min Rain = 0
KCR2 230718Z 18010KT 16/13 A2999 RMK A01 T01560129  RH  084%=      5-min Rain = 0
KCR2 230719Z 18009KT 16/13 A2999 RMK A01 T01570129  RH  083%=      5-min Rain = 0
KCR2 230720Z 18009KT 16/13 A2999 RMK A01 T01560129  RH  084%=      5-min Rain = 0
KCR2 230721Z 18008KT 16/13 A2999 RMK A01 T01560128  RH  084%=      5-min Rain = 0
KCR2 230722Z 18011KT 16/13 A2999 RMK A01 T01550129  RH  084%=      5-min Rain = 0
KCR2 230723Z 17011KT 16/13 A2999 RMK A01 T01550129  RH  084%=      5-min Rain = 0
KCR2 230724Z 18010KT 16/13 A2999 RMK A01 T01550129  RH  084%=      5-min Rain = 0
KCR2 230725Z 17011KT 16/13 A2998 RMK A01 T01560129  RH  084%=      5-min Rain = 0
KCR2 230726Z 17009KT 16/13 A2998 RMK A01 T01560129  RH  084%=      5-min Rain = 0
KCR2 230727Z 17011KT 16/13 A2998 RMK A01 T01560129  RH  084%=      5-min Rain = 0
KCR2 230728Z 17011KT 16/13 A2998 RMK A01 T01560129  RH  084%=      5-min Rain = 0
KCR2 230729Z 17011KT 16/13 A2998 RMK A01 T01560129  RH  084%=      5-min Rain = 0
KCR2 230730Z 18009KT 16/13 A2998 RMK A01 T01560129  RH  084%=      5-min Rain = 0
KCR2 230731Z 18010KT 16/13 A2998 RMK A01 T01550129  RH  084%=      5-min Rain = 0
KCR2 230732Z 18008KT 16/13 A2998 RMK A01 T01550129  RH  084%=      5-min Rain = 0
KCR2 230733Z 17009KT 16/13 A2998 RMK A01 T01550129  RH  084%=      5-min Rain = 0
KCR2 230734Z 18008KT 15/13 A2998 RMK A01 T01540128  RH  084%=      5-min Rain = 0
KCR2 230735Z 18008KT 15/13 A2998 RMK A01 T01540129  RH  085%=      5-min Rain = 0
KCR2 230736Z 18009KT 15/13 A2998 RMK A01 T01540129  RH  085%=      5-min Rain = 0
KCR2 230737Z 18008KT 15/13 A2998 RMK A01 T01540129  RH  085%=      5-min Rain = 0
KCR2 230738Z 18008KT 15/13 A2998 RMK A01 T01540129  RH  085%=      5-min Rain = 0
KCR2 230739Z 18009KT 15/13 A2998 RMK A01 T01530128  RH  085%=      5-min Rain = 0
KCR2 230740Z 18008KT 15/13 A2998 RMK A01 T01530129  RH  085%=      5-min Rain = 0
KCR2 230741Z 18007KT 15/13 A2998 RMK A01 T01530129  RH  085%=      5-min Rain = 0
KCR2 230742Z 18009KT 15/13 A2998 RMK A01 T01530129  RH  085%=      5-min Rain = 0
KCR2 230743Z 18008KT 15/13 A2998 RMK A01 T01530129  RH  085%=      5-min Rain = 0
KCR2 230744Z 18007KT 15/13 A2998 RMK A01 T01540129  RH  085%=      5-min Rain = 0
KCR2 230745Z 17007KT 15/13 A2998 RMK A01 T01530128  RH  085%=      5-min Rain = 0
KCR2 230746Z 18008KT 15/13 A2998 RMK A01 T01530128  RH  085%=      5-min Rain = 0
KCR2 230747Z 18008KT 15/13 A2998 RMK A01 T01520129  RH  086%=      5-min Rain = 0
KCR2 230748Z 18008KT 15/13 A2998 RMK A01 T01530129  RH  085%=      5-min Rain = 0
KCR2 230749Z 17006KT 15/13 A2998 RMK A01 T01530129  RH  085%=      5-min Rain = 0
KCR2 230750Z 18007KT 15/13 A2998 RMK A01 T01520128  RH  085%=      5-min Rain = 0
KCR2 230751Z 17006KT 15/13 A2998 RMK A01 T01520129  RH  086%=      5-min Rain = 0
KCR2 230752Z 18007KT 15/13 A2998 RMK A01 T01520128  RH  086%=      5-min Rain = 0
KCR2 230753Z 17009KT 15/13 A2998 RMK A01 T01520128  RH  086%=      5-min Rain = 0
KCR2 230754Z 18008KT 15/13 A2998 RMK A01 T01520129  RH  086%=      5-min Rain = 0
KCR2 230755Z 18008KT 15/13 A2998 RMK A01 T01520128  RH  086%=      5-min Rain = 0
KCR2 230756Z 17008KT 15/13 A2998 RMK A01 T01520129  RH  086%=      5-min Rain = 0
KCR2 230757Z 18009KT 15/13 A2998 RMK A01 T01520129  RH  086%=      5-min Rain = 0
KCR2 230758Z 17008KT 15/13 A2998 RMK A01 T01530129  RH  085%=      5-min Rain = 0
KCR2 230759Z 18010KT 15/13 A2998 RMK A01 T01540129  RH  085%=      5-min Rain = 0
KCR2 230800Z 17008KT 15/13 A2998 RMK A01 T01530129  RH  085%=      5-min Rain = 0
KCR2 230801Z 17010KT 15/13 A2998 RMK A01 T01540129  RH  085%=      5-min Rain = 0
KCR2 230802Z 18010KT 15/13 A2998 RMK A01 T01540129  RH  085%=      5-min Rain = 0
KCR2 230803Z 17010KT 15/13 A2998 RMK A01 T01540129  RH  085%=      5-min Rain = 0
KCR2 230804Z 17009KT 15/13 A2998 RMK A01 T01540129  RH  085%=      5-min Rain = 0
KCR2 230805Z 17009KT 15/13 A2998 RMK A01 T01540129  RH  085%=      5-min Rain = 0
KCR2 230806Z 17008KT 15/13 A2998 RMK A01 T01530129  RH  085%=      5-min Rain = 0
KCR2 230807Z 17007KT 15/13 A2998 RMK A01 T01530129  RH  085%=      5-min Rain = 0
KCR2 230808Z 17008KT 15/13 A2998 RMK A01 T01520128  RH  085%=      5-min Rain = 0
KCR2 230809Z 16006KT 15/13 A2998 RMK A01 T01520129  RH  086%=      5-min Rain = 0
KCR2 230810Z 17006KT 15/13 A2998 RMK A01 T01530128  RH  085%=      5-min Rain = 0
KCR2 230811Z 16005KT 15/13 A2998 RMK A01 T01520127  RH  085%=      5-min Rain = 0
KCR2 230812Z 17005KT 15/13 A2998 RMK A01 T01510127  RH  086%=      5-min Rain = 0
KCR2 230813Z 17006KT 15/13 A2998 RMK A01 T01500127  RH  086%=      5-min Rain = 0
KCR2 230814Z 18005KT 15/13 A2998 RMK A01 T01500128  RH  086%=      5-min Rain = 0
KCR2 230815Z 18005KT 15/13 A2998 RMK A01 T01500128  RH  086%=      5-min Rain = 0
KCR2 230816Z 16006KT 15/13 A2998 RMK A01 T01500127  RH  086%=      5-min Rain = 0
KCR2 230817Z 17007KT 15/13 A2998 RMK A01 T01500128  RH  087%=      5-min Rain = 0
KCR2 230818Z 17006KT 15/13 A2998 RMK A01 T01510129  RH  087%=      5-min Rain = 0
KCR2 230819Z 16006KT 15/13 A2998 RMK A01 T01510128  RH  086%=      5-min Rain = 0
KCR2 230820Z 18009KT 15/13 A2998 RMK A01 T01500128  RH  086%=      5-min Rain = 0
KCR2 230821Z 17007KT 15/13 A2998 RMK A01 T01500128  RH  086%=      5-min Rain = 0
KCR2 230822Z 17008KT 15/13 A2998 RMK A01 T01500128  RH  086%=      5-min Rain = 0
KCR2 230823Z 17007KT 15/13 A2998 RMK A01 T01510128  RH  086%=      5-min Rain = 0
KCR2 230824Z 17006KT 15/13 A2998 RMK A01 T01510128  RH  086%=      5-min Rain = 0
KCR2 230825Z 17007KT 15/13 A2998 RMK A01 T01500127  RH  086%=      5-min Rain = 0
KCR2 230826Z 17007KT 15/13 A2998 RMK A01 T01500128  RH  087%=      5-min Rain = 0
KCR2 230827Z 17007KT 15/13 A2998 RMK A01 T01500128  RH  087%=      5-min Rain = 0
KCR2 230828Z 17008KT 15/13 A2998 RMK A01 T01490128  RH  087%=      5-min Rain = 0
KCR2 230829Z 16007KT 15/13 A2998 RMK A01 T01500128  RH  087%=      5-min Rain = 0
KCR2 230830Z 17007KT 15/13 A2998 RMK A01 T01500127  RH  086%=      5-min Rain = 0
KCR2 230831Z 17006KT 15/13 A2998 RMK A01 T01500128  RH  086%=      5-min Rain = 0
KCR2 230832Z 16008KT 15/13 A2998 RMK A01 T01500128  RH  087%=      5-min Rain = 0
KCR2 230833Z 17006KT 15/13 A2998 RMK A01 T01500128  RH  087%=      5-min Rain = 0
KCR2 230834Z 17007KT 15/13 A2998 RMK A01 T01490128  RH  087%=      5-min Rain = 0
KCR2 230835Z 17007KT 15/13 A2998 RMK A01 T01490128  RH  087%=      5-min Rain = 0
KCR2 230836Z 16005KT 15/13 A2998 RMK A01 T01490128  RH  087%=      5-min Rain = 0
KCR2 230837Z 17006KT 15/13 A2998 RMK A01 T01500128  RH  087%=      5-min Rain = 0
KCR2 230838Z 17005KT 15/13 A2998 RMK A01 T01500128  RH  087%=      5-min Rain = 0
KCR2 230839Z 17006KT 15/13 A2998 RMK A01 T01500128  RH  087%=      5-min Rain = 0
KCR2 230840Z 17006KT 15/13 A2998 RMK A01 T01490128  RH  087%=      5-min Rain = 0
KCR2 230841Z 17007KT 15/13 A2998 RMK A01 T01500128  RH  087%=      5-min Rain = 0
KCR2 230842Z 16005KT 15/13 A2998 RMK A01 T01500127  RH  086%=      5-min Rain = 0
KCR2 230843Z 18006KT 15/13 A2998 RMK A01 T01490127  RH  087%=      5-min Rain = 0
KCR2 230844Z 17005KT 15/13 A2998 RMK A01 T01490127  RH  087%=      5-min Rain = 0
KCR2 230845Z 15004KT 15/13 A2998 RMK A01 T01480127  RH  087%=      5-min Rain = 0
KCR2 230846Z 17005KT 15/13 A2998 RMK A01 T01480127  RH  087%=      5-min Rain = 0
KCR2 230847Z 17004KT 15/13 A2998 RMK A01 T01480127  RH  087%=      5-min Rain = 0
KCR2 230848Z 15004KT 15/13 A2998 RMK A01 T01480127  RH  087%=      5-min Rain = 0
KCR2 230849Z 17006KT 15/13 A2999 RMK A01 T01480127  RH  087%=      5-min Rain = 0
KCR2 230850Z 17007KT 15/13 A2999 RMK A01 T01480128  RH  088%=      5-min Rain = 0
KCR2 230851Z 17006KT 15/13 A2999 RMK A01 T01480128  RH  088%=      5-min Rain = 0
KCR2 230852Z 17005KT 15/13 A2999 RMK A01 T01490128  RH  087%=      5-min Rain = 0
KCR2 230853Z 17005KT 15/13 A2998 RMK A01 T01480128  RH  087%=      5-min Rain = 0
KCR2 230854Z 17005KT 15/13 A2998 RMK A01 T01480127  RH  087%=      5-min Rain = 0
KCR2 230855Z 16006KT 15/13 A2998 RMK A01 T01470126  RH  087%=      5-min Rain = 0
KCR2 230856Z 16006KT 15/13 A2998 RMK A01 T01460127  RH  088%=      5-min Rain = 0
KCR2 230857Z 16006KT 15/13 A2998 RMK A01 T01460126  RH  088%=      5-min Rain = 0
KCR2 230858Z 16007KT 15/13 A2998 RMK A01 T01460126  RH  088%=      5-min Rain = 0
KCR2 230859Z 17006KT 15/13 A2998 RMK A01 T01460127  RH  088%=      5-min Rain = 0
KCR2 230900Z 17006KT 15/13 A2998 RMK A01 T01460127  RH  088%=      5-min Rain = 0
KCR2 230901Z 17005KT 15/13 A2998 RMK A01 T01460127  RH  088%=      5-min Rain = 0
KCR2 230902Z 17006KT 15/13 A2998 RMK A01 T01460127  RH  088%=      5-min Rain = 0
KCR2 230903Z 17007KT 15/13 A2998 RMK A01 T01450127  RH  089%=      5-min Rain = 0
KCR2 230904Z 17007KT 15/13 A2998 RMK A01 T01460127  RH  089%=      5-min Rain = 0
KCR2 230905Z 17006KT 15/13 A2998 RMK A01 T01470128  RH  088%=      5-min Rain = 0
KCR2 230906Z 17007KT 15/13 A2998 RMK A01 T01470127  RH  088%=      5-min Rain = 0
KCR2 230907Z 17005KT 15/13 A2998 RMK A01 T01460126  RH  088%=      5-min Rain = 0
KCR2 230908Z 17005KT 15/13 A2998 RMK A01 T01450126  RH  088%=      5-min Rain = 0
KCR2 230909Z 16005KT 15/13 A2998 RMK A01 T01460127  RH  088%=      5-min Rain = 0
KCR2 230910Z 17006KT 15/13 A2998 RMK A01 T01450126  RH  088%=      5-min Rain = 0
KCR2 230911Z 17006KT 15/13 A2998 RMK A01 T01450126  RH  089%=      5-min Rain = 0
KCR2 230912Z 18006KT 15/13 A2998 RMK A01 T01450126  RH  089%=      5-min Rain = 0
KCR2 230913Z 18006KT 15/13 A2998 RMK A01 T01450127  RH  089%=      5-min Rain = 0
KCR2 230914Z 17006KT 15/13 A2999 RMK A01 T01450127  RH  088%=      5-min Rain = 0
KCR2 230915Z 18006KT 15/13 A2999 RMK A01 T01460127  RH  088%=      5-min Rain = 0
KCR2 230916Z 18005KT 15/13 A2999 RMK A01 T01460126  RH  088%=      5-min Rain = 0
KCR2 230917Z 19006KT 14/13 A2999 RMK A01 T01440126  RH  088%=      5-min Rain = 0
KCR2 230918Z 18006KT 15/13 A2999 RMK A01 T01450127  RH  089%=      5-min Rain = 0
KCR2 230919Z 18007KT 15/13 A2999 RMK A01 T01450127  RH  089%=      5-min Rain = 0
KCR2 230920Z 18005KT 15/13 A2998 RMK A01 T01460127  RH  089%=      5-min Rain = 0
KCR2 230921Z 18006KT 15/13 A2998 RMK A01 T01460127  RH  088%=      5-min Rain = 0
KCR2 230922Z 18007KT 15/13 A2998 RMK A01 T01460127  RH  088%=      5-min Rain = 0
KCR2 230923Z 18007KT 15/13 A2998 RMK A01 T01460127  RH  088%=      5-min Rain = 0
KCR2 230924Z 17006KT 15/13 A2998 RMK A01 T01460127  RH  088%=      5-min Rain = 0
KCR2 230925Z 18008KT 15/13 A2998 RMK A01 T01460127  RH  089%=      5-min Rain = 0
KCR2 230926Z 18009KT 15/13 A2998 RMK A01 T01460128  RH  089%=      5-min Rain = 0
KCR2 230927Z 18008KT 15/13 A2998 RMK A01 T01470128  RH  088%=      5-min Rain = 0
KCR2 230928Z 18008KT 15/13 A2998 RMK A01 T01480128  RH  088%=      5-min Rain = 0
KCR2 230929Z 18007KT 15/13 A2998 RMK A01 T01480128  RH  088%=      5-min Rain = 0
KCR2 230930Z 18009KT 15/13 A2998 RMK A01 T01480128  RH  088%=      5-min Rain = 0
KCR2 230931Z 19008KT 15/13 A2998 RMK A01 T01470127  RH  088%=      5-min Rain = 0
KCR2 230932Z 18009KT 15/13 A2998 RMK A01 T01470128  RH  088%=      5-min Rain = 0
KCR2 230933Z 18010KT 15/13 A2998 RMK A01 T01470128  RH  088%=      5-min Rain = 0
KCR2 230934Z 18008KT 15/13 A2998 RMK A01 T01480128  RH  088%=      5-min Rain = 0
KCR2 230935Z 18007KT 15/13 A2998 RMK A01 T01480128  RH  088%=      5-min Rain = 0
KCR2 230936Z 18007KT 15/13 A2998 RMK A01 T01470127  RH  088%=      5-min Rain = 0
KCR2 230937Z 18008KT 15/13 A2998 RMK A01 T01460126  RH  088%=      5-min Rain = 0
KCR2 230938Z 18008KT 15/13 A2998 RMK A01 T01450127  RH  089%=      5-min Rain = 0
KCR2 230939Z 18009KT 15/13 A2998 RMK A01 T01450127  RH  089%=      5-min Rain = 0
KCR2 230940Z 18007KT 15/13 A2998 RMK A01 T01450128  RH  089%=      5-min Rain = 0
KCR2 230941Z 18007KT 15/13 A2998 RMK A01 T01460127  RH  089%=      5-min Rain = 0
KCR2 230942Z 18009KT 15/13 A2998 RMK A01 T01450127  RH  089%=      5-min Rain = 0
KCR2 230943Z 18007KT 15/13 A2998 RMK A01 T01460128  RH  089%=      5-min Rain = 0
KCR2 230944Z 19009KT 15/13 A2998 RMK A01 T01450127  RH  089%=      5-min Rain = 0
KCR2 230945Z 19007KT 15/13 A2998 RMK A01 T01450127  RH  089%=      5-min Rain = 0
KCR2 230946Z 19007KT 15/13 A2998 RMK A01 T01450127  RH  089%=      5-min Rain = 0
KCR2 230947Z 19007KT 15/13 A2998 RMK A01 T01450127  RH  089%=      5-min Rain = 0
KCR2 230948Z 19007KT 14/13 A2998 RMK A01 T01440126  RH  089%=      5-min Rain = 0
KCR2 230949Z 19007KT 14/13 A2998 RMK A01 T01440127  RH  090%=      5-min Rain = 0
KCR2 230950Z 19007KT 14/13 A2998 RMK A01 T01440127  RH  089%=      5-min Rain = 0
KCR2 230951Z 19008KT 14/13 A2998 RMK A01 T01440127  RH  089%=      5-min Rain = 0
KCR2 230952Z 19008KT 14/13 A2998 RMK A01 T01440127  RH  089%=      5-min Rain = 0
KCR2 230953Z 19008KT 14/13 A2998 RMK A01 T01440127  RH  089%=      5-min Rain = 0
KCR2 230954Z 20006KT 14/13 A2998 RMK A01 T01440127  RH  089%=      5-min Rain = 0
KCR2 230955Z 20007KT 14/13 A2998 RMK A01 T01440127  RH  089%=      5-min Rain = 0
KCR2 230956Z 20007KT 14/13 A2998 RMK A01 T01430127  RH  090%=      5-min Rain = 0
KCR2 230957Z 19008KT 14/13 A2997 RMK A01 T01430127  RH  090%=      5-min Rain = 0
KCR2 230958Z 19008KT 14/13 A2997 RMK A01 T01430126  RH  090%=      5-min Rain = 0
KCR2 230959Z 19010KT 14/13 A2997 RMK A01 T01430127  RH  090%=      5-min Rain = 0
KCR2 231000Z 19009KT 14/13 A2997 RMK A01 T01440128  RH  090%=      5-min Rain = 0
KCR2 231001Z 19010KT 14/13 A2997 RMK A01 T01440128  RH  090%=      5-min Rain = 0
KCR2 231002Z 19011KT 14/13 A2997 RMK A01 T01440128  RH  090%=      5-min Rain = 0
KCR2 231003Z 19012KT 15/13 A2997 RMK A01 T01450128  RH  090%=      5-min Rain = 0
KCR2 231004Z 20011KT 15/13 A2997 RMK A01 T01450128  RH  089%=      5-min Rain = 0
KCR2 231005Z 20011KT 15/13 A2997 RMK A01 T01450128  RH  089%=      5-min Rain = 0
KCR2 231006Z 19010KT 15/13 A2997 RMK A01 T01450128  RH  089%=      5-min Rain = 0
KCR2 231007Z 20009KT 15/13 A2997 RMK A01 T01460128  RH  089%=      5-min Rain = 0
KCR2 231008Z 20009KT 15/13 A2997 RMK A01 T01460128  RH  089%=      5-min Rain = 0
KCR2 231009Z 20010KT 15/13 A2997 RMK A01 T01450128  RH  089%=      5-min Rain = 0
KCR2 231010Z 19011KT 15/13 A2997 RMK A01 T01450128  RH  090%=      5-min Rain = 0
KCR2 231011Z 19012KT 15/13 A2997 RMK A01 T01450128  RH  090%=      5-min Rain = 0
KCR2 231012Z 20012KT 15/13 A2997 RMK A01 T01450129  RH  090%=      5-min Rain = 0
KCR2 231013Z 19012KT 15/13 A2997 RMK A01 T01460129  RH  089%=      5-min Rain = 0
KCR2 231014Z 19012KT 15/13 A2997 RMK A01 T01460129  RH  089%=      5-min Rain = 0
KCR2 231015Z 20012KT 15/13 A2997 RMK A01 T01460129  RH  089%=      5-min Rain = 0
KCR2 231016Z 20014KT 15/13 A2997 RMK A01 T01460129  RH  090%=      5-min Rain = 0
KCR2 231017Z 20012KT 15/13 A2997 RMK A01 T01450129  RH  090%=      5-min Rain = 0
KCR2 231018Z 19013KT 15/13 A2997 RMK A01 T01460129  RH  090%=      5-min Rain = 0
KCR2 231019Z 19012KT 15/13 A2997 RMK A01 T01460129  RH  089%=      5-min Rain = 0
KCR2 231020Z 19012KT 15/13 A2997 RMK A01 T01460129  RH  090%=      5-min Rain = 0
KCR2 231021Z 19012KT 15/13 A2997 RMK A01 T01450128  RH  090%=      5-min Rain = 0
KCR2 231022Z 20012KT 14/13 A2997 RMK A01 T01440128  RH  090%=      5-min Rain = 0
KCR2 231023Z 19012KT 14/13 A2997 RMK A01 T01430128  RH  090%=      5-min Rain = 0
KCR2 231024Z 20012KT 14/13 A2997 RMK A01 T01440128  RH  090%=      5-min Rain = 0
KCR2 231025Z 19012KT 14/13 A2997 RMK A01 T01440128  RH  090%=      5-min Rain = 0
KCR2 231026Z 19016KT 14/13 A2997 RMK A01 T01440128  RH  090%=      5-min Rain = 0
KCR2 231027Z 19014KT 15/13 A2997 RMK A01 T01450129  RH  090%=      5-min Rain = 0
KCR2 231028Z 19012KT 15/13 A2997 RMK A01 T01450128  RH  090%=      5-min Rain = 0
KCR2 231029Z 19011KT 15/13 A2997 RMK A01 T01450129  RH  090%=      5-min Rain = 0
KCR2 231030Z 19013KT 15/13 A2997 RMK A01 T01450128  RH  090%=      5-min Rain = 0
KCR2 231031Z 19013KT 15/13 A2997 RMK A01 T01450129  RH  090%=      5-min Rain = 0
KCR2 231032Z 20012KT 15/13 A2998 RMK A01 T01450129  RH  090%=      5-min Rain = 0
KCR2 231033Z 19011KT 15/13 A2998 RMK A01 T01450128  RH  090%=      5-min Rain = 0
KCR2 231034Z 19011KT 15/13 A2997 RMK A01 T01450128  RH  090%=      5-min Rain = 0
KCR2 231035Z 19011KT 15/13 A2997 RMK A01 T01450129  RH  090%=      5-min Rain = 0
KCR2 231036Z 19012KT 14/13 A2997 RMK A01 T01440128  RH  090%=      5-min Rain = 0
KCR2 231037Z 19014KT 14/13 A2997 RMK A01 T01440128  RH  090%=      5-min Rain = 0
KCR2 231038Z 19013KT 14/13 A2997 RMK A01 T01440129  RH  090%=      5-min Rain = 0
KCR2 231039Z 20011KT 15/13 A2998 RMK A01 T01450129  RH  090%=      5-min Rain = 0
KCR2 231040Z 20012KT 14/13 A2998 RMK A01 T01440128  RH  090%=      5-min Rain = 0
KCR2 231041Z 20011KT 14/13 A2998 RMK A01 T01440128  RH  090%=      5-min Rain = 0
KCR2 231042Z 22010KT 14/13 A2998 RMK A01 T01440127  RH  090%=      5-min Rain = 0
KCR2 231043Z 21010KT 14/13 A2998 RMK A01 T01430128  RH  090%=      5-min Rain = 0
KCR2 231044Z 21009KT 14/13 A2998 RMK A01 T01430128  RH  090%=      5-min Rain = 0
KCR2 231045Z 21009KT 14/13 A2998 RMK A01 T01430128  RH  091%=      5-min Rain = 0
KCR2 231046Z 21010KT 14/13 A2998 RMK A01 T01420128  RH  091%=      5-min Rain = 0
KCR2 231047Z 20008KT 14/13 A2998 RMK A01 T01420127  RH  091%=      5-min Rain = 0
KCR2 231048Z 20010KT 14/13 A2998 RMK A01 T01420127  RH  091%=      5-min Rain = 0
KCR2 231049Z 20012KT 14/13 A2998 RMK A01 T01410127  RH  091%=      5-min Rain = 0
KCR2 231050Z 20011KT 14/13 A2998 RMK A01 T01420128  RH  091%=      5-min Rain = 0
KCR2 231051Z 20010KT 14/13 A2998 RMK A01 T01430129  RH  091%=      5-min Rain = 0
KCR2 231052Z 20010KT 14/13 A2998 RMK A01 T01430128  RH  091%=      5-min Rain = 0
KCR2 231053Z 20010KT 14/13 A2998 RMK A01 T01430128  RH  090%=      5-min Rain = 0
KCR2 231054Z 19012KT 14/13 A2998 RMK A01 T01430128  RH  091%=      5-min Rain = 0
KCR2 231055Z 19012KT 14/13 A2998 RMK A01 T01430128  RH  091%=      5-min Rain = 0
KCR2 231056Z 19012KT 14/13 A2998 RMK A01 T01430128  RH  091%=      5-min Rain = 0
KCR2 231057Z 20012KT 14/13 A2998 RMK A01 T01430128  RH  091%=      5-min Rain = 0
KCR2 231058Z 20012KT 14/13 A2998 RMK A01 T01430128  RH  091%=      5-min Rain = 0
KCR2 231059Z 20009KT 14/13 A2998 RMK A01 T01430129  RH  091%=      5-min Rain = 0
KCR2 231100Z 20010KT 14/13 A2998 RMK A01 T01430128  RH  091%=      5-min Rain = 0
KCR2 231101Z 20012KT 14/13 A2998 RMK A01 T01430128  RH  091%=      5-min Rain = 0
KCR2 231102Z 19014KT 14/13 A2998 RMK A01 T01420127  RH  091%=      5-min Rain = 0
KCR2 231103Z 20012KT 14/13 A2998 RMK A01 T01420127  RH  091%=      5-min Rain = 0
KCR2 231104Z 20012KT 14/13 A2998 RMK A01 T01420127  RH  091%=      5-min Rain = 0
KCR2 231105Z 20010KT 14/13 A2998 RMK A01 T01420127  RH  091%=      5-min Rain = 0
KCR2 231106Z 19011KT 14/13 A2998 RMK A01 T01410126  RH  091%=      5-min Rain = 0
KCR2 231107Z 19010KT 14/13 A2998 RMK A01 T01410127  RH  091%=      5-min Rain = 0
KCR2 231108Z 20011KT 14/13 A2998 RMK A01 T01420127  RH  091%=      5-min Rain = 0
KCR2 231109Z 20010KT 14/13 A2998 RMK A01 T01420127  RH  091%=      5-min Rain = 0
KCR2 231110Z 20010KT 14/13 A2998 RMK A01 T01420126  RH  090%=      5-min Rain = 0
KCR2 231111Z 20011KT 14/13 A2998 RMK A01 T01410126  RH  090%=      5-min Rain = 0
KCR2 231112Z 20011KT 14/13 A2998 RMK A01 T01410126  RH  090%=      5-min Rain = 0
KCR2 231113Z 20010KT 14/13 A2998 RMK A01 T01410125  RH  090%=      5-min Rain = 0
KCR2 231114Z 20010KT 14/13 A2998 RMK A01 T01400125  RH  090%=      5-min Rain = 0
KCR2 231115Z 20011KT 14/13 A2998 RMK A01 T01400125  RH  090%=      5-min Rain = 0
KCR2 231116Z 20010KT 14/13 A2998 RMK A01 T01410126  RH  091%=      5-min Rain = 0
KCR2 231117Z 20009KT 14/13 A2998 RMK A01 T01400125  RH  090%=      5-min Rain = 0
KCR2 231118Z 20009KT 14/12 A2998 RMK A01 T01390124  RH  090%=      5-min Rain = 0
KCR2 231119Z 20011KT 14/12 A2998 RMK A01 T01390124  RH  091%=      5-min Rain = 0
KCR2 231120Z 20011KT 14/12 A2998 RMK A01 T01380124  RH  091%=      5-min Rain = 0
KCR2 231121Z 20010KT 14/13 A2998 RMK A01 T01390125  RH  091%=      5-min Rain = 0
KCR2 231122Z 20011KT 14/13 A2998 RMK A01 T01390125  RH  091%=      5-min Rain = 0
KCR2 231123Z 20009KT 14/13 A2998 RMK A01 T01390126  RH  092%=      5-min Rain = 0
KCR2 231124Z 20009KT 14/13 A2998 RMK A01 T01380125  RH  092%=      5-min Rain = 0
KCR2 231125Z 20009KT 14/13 A2998 RMK A01 T01380125  RH  092%=      5-min Rain = 0
KCR2 231126Z 21008KT 14/13 A2999 RMK A01 T01370125  RH  092%=      5-min Rain = 0
KCR2 231127Z 21009KT 14/12 A2999 RMK A01 T01360124  RH  092%=      5-min Rain = 0
KCR2 231128Z 20010KT 14/12 A2999 RMK A01 T01360124  RH  093%=      5-min Rain = 0
KCR2 231129Z 20010KT 14/12 A2999 RMK A01 T01360124  RH  093%=      5-min Rain = 0
KCR2 231130Z 21010KT 14/12 A2999 RMK A01 T01360124  RH  092%=      5-min Rain = 0
KCR2 231131Z 20008KT 14/12 A2999 RMK A01 T01360123  RH  092%=      5-min Rain = 0
KCR2 231132Z 20010KT 14/12 A2999 RMK A01 T01350122  RH  092%=      5-min Rain = 0
KCR2 231133Z 21010KT 14/12 A2999 RMK A01 T01350122  RH  092%=      5-min Rain = 0
KCR2 231134Z 20009KT 14/12 A2999 RMK A01 T01350123  RH  092%=      5-min Rain = 0
KCR2 231135Z 20010KT 13/12 A2999 RMK A01 T01340122  RH  092%=      5-min Rain = 0
KCR2 231136Z 20009KT 13/12 A2999 RMK A01 T01340122  RH  092%=      5-min Rain = 0
KCR2 231137Z 20009KT 13/12 A2999 RMK A01 T01340122  RH  093%=      5-min Rain = 0
KCR2 231138Z 20009KT 13/12 A2999 RMK A01 T01340122  RH  093%=      5-min Rain = 0
KCR2 231139Z 20011KT 13/12 A2999 RMK A01 T01340122  RH  093%=      5-min Rain = 0
KCR2 231140Z 20011KT 13/12 A2999 RMK A01 T01340123  RH  093%=      5-min Rain = 0
KCR2 231141Z 20010KT 13/12 A2999 RMK A01 T01340123  RH  093%=      5-min Rain = 0
KCR2 231142Z 20010KT 13/12 A2999 RMK A01 T01340123  RH  093%=      5-min Rain = 0
KCR2 231143Z 20009KT 13/12 A2999 RMK A01 T01340123  RH  093%=      5-min Rain = 0
KCR2 231144Z 21008KT 13/12 A2999 RMK A01 T01340122  RH  093%=      5-min Rain = 0
KCR2 231145Z 21008KT 13/12 A2999 RMK A01 T01340122  RH  092%=      5-min Rain = 0
KCR2 231146Z 20009KT 13/12 A2999 RMK A01 T01340122  RH  093%=      5-min Rain = 0
KCR2 231147Z 20009KT 13/12 A2999 RMK A01 T01330122  RH  093%=      5-min Rain = 0
KCR2 231148Z 20009KT 13/12 A2999 RMK A01 T01330122  RH  093%=      5-min Rain = 0
KCR2 231149Z 20009KT 13/12 A2999 RMK A01 T01330122  RH  093%=      5-min Rain = 0
KCR2 231150Z 21008KT 13/12 A2999 RMK A01 T01330122  RH  093%=      5-min Rain = 0
KCR2 231151Z 20009KT 13/12 A2999 RMK A01 T01330122  RH  093%=      5-min Rain = 0
KCR2 231152Z 20010KT 13/12 A2999 RMK A01 T01320122  RH  093%=      5-min Rain = 0
KCR2 231153Z 20009KT 13/12 A2999 RMK A01 T01320122  RH  093%=      5-min Rain = 0
KCR2 231154Z 20010KT 13/12 A2999 RMK A01 T01320122  RH  093%=      5-min Rain = 0
KCR2 231155Z 20007KT 13/12 A2999 RMK A01 T01320122  RH  094%=      5-min Rain = 0
KCR2 231156Z 20007KT 13/12 A2999 RMK A01 T01320122  RH  093%=      5-min Rain = 0
KCR2 231157Z 20009KT 13/12 A30 RMK A01 T01310120  RH  093%=      5-min Rain = 0
KCR2 231158Z 20009KT 13/12 A30 RMK A01 T01310120  RH  093%=      5-min Rain = 0
KCR2 231159Z 21008KT 13/12 A30 RMK A01 T01310120  RH  093%=      5-min Rain = 0
KCR2 231200Z 21008KT 13/12 A30 RMK A01 T01300120  RH  093%=      5-min Rain = 0
KCR2 231201Z 20008KT 13/12 A30 RMK A01 T01300119  RH  093%=      5-min Rain = 0
KCR2 231202Z 20008KT 13/12 A30 RMK A01 T01300119  RH  093%=      5-min Rain = 0
KCR2 231203Z 21007KT 13/12 A30 RMK A01 T01290118  RH  093%=      5-min Rain = 0
KCR2 231204Z 21007KT 13/12 A30 RMK A01 T01290117  RH  093%=      5-min Rain = 0
KCR2 231205Z 21007KT 13/12 A30 RMK A01 T01290118  RH  093%=      5-min Rain = 0
KCR2 231206Z 21007KT 13/12 A30 RMK A01 T01290118  RH  093%=      5-min Rain = 0
KCR2 231207Z 20008KT 13/12 A30 RMK A01 T01290118  RH  093%=      5-min Rain = 0
KCR2 231208Z 20009KT 13/12 A30 RMK A01 T01290118  RH  093%=      5-min Rain = 0
KCR2 231209Z 20008KT 13/12 A30 RMK A01 T01290118  RH  093%=      5-min Rain = 0
KCR2 231210Z 21008KT 13/12 A30 RMK A01 T01290118  RH  093%=      5-min Rain = 0
KCR2 231211Z 20008KT 13/12 A30 RMK A01 T01290118  RH  093%=      5-min Rain = 0
KCR2 231212Z 20008KT 13/12 A30 RMK A01 T01290118  RH  093%=      5-min Rain = 0
KCR2 231213Z 20008KT 13/12 A30 RMK A01 T01280117  RH  093%=      5-min Rain = 0
KCR2 231214Z 21008KT 13/12 A30 RMK A01 T01270116  RH  093%=      5-min Rain = 0
KCR2 231215Z 21008KT 13/12 A30 RMK A01 T01270115  RH  093%=      5-min Rain = 0
KCR2 231216Z 21009KT 13/11 A30 RMK A01 T01260114  RH  092%=      5-min Rain = 0
KCR2 231217Z 21008KT 13/11 A30 RMK A01 T01260113  RH  092%=      5-min Rain = 0
KCR2 231218Z 20007KT 13/11 A30 RMK A01 T01260113  RH  092%=      5-min Rain = 0
KCR2 231219Z 21008KT 13/11 A30 RMK A01 T01260113  RH  091%=      5-min Rain = 0
KCR2 231220Z 20008KT 13/11 A30 RMK A01 T01260113  RH  092%=      5-min Rain = 0
KCR2 231221Z 21007KT 13/11 A30 RMK A01 T01260113  RH  092%=      5-min Rain = 0
KCR2 231222Z 21007KT 13/11 A30 RMK A01 T01260111  RH  091%=      5-min Rain = 0
KCR2 231223Z 21008KT 13/11 A30 RMK A01 T01250111  RH  091%=      5-min Rain = 0
KCR2 231224Z 21008KT 13/11 A30 RMK A01 T01250112  RH  091%=      5-min Rain = 0
KCR2 231225Z 21007KT 13/11 A30 RMK A01 T01250111  RH  091%=      5-min Rain = 0
KCR2 231226Z 21007KT 13/11 A30 RMK A01 T01250111  RH  091%=      5-min Rain = 0
KCR2 231227Z 21007KT 12/11 A30 RMK A01 T01240110  RH  091%=      5-min Rain = 0
KCR2 231228Z 21008KT 12/11 A30 RMK A01 T01230109  RH  091%=      5-min Rain = 0
KCR2 231229Z 21008KT 12/11 A30 RMK A01 T01230110  RH  092%=      5-min Rain = 0
KCR2 231230Z 20008KT 12/11 A30 RMK A01 T01230111  RH  092%=      5-min Rain = 0
KCR2 231231Z 21008KT 12/11 A30 RMK A01 T01230110  RH  092%=      5-min Rain = 0
KCR2 231232Z 21009KT 12/11 A3001 RMK A01 T01230111  RH  092%=      5-min Rain = 0
KCR2 231233Z 20009KT 12/11 A3001 RMK A01 T01230112  RH  093%=      5-min Rain = 0
KCR2 231234Z 20008KT 12/11 A3001 RMK A01 T01230112  RH  093%=      5-min Rain = 0
KCR2 231235Z 20008KT 12/11 A3001 RMK A01 T01230112  RH  093%=      5-min Rain = 0
KCR2 231236Z 20009KT 12/11 A3001 RMK A01 T01230113  RH  093%=      5-min Rain = 0
KCR2 231237Z 20009KT 13/12 A30 RMK A01 T01250115  RH  094%=      5-min Rain = 0
KCR2 231238Z 20009KT 13/11 A3001 RMK A01 T01250114  RH  093%=      5-min Rain = 0
KCR2 231239Z 21009KT 13/11 A3001 RMK A01 T01250113  RH  093%=      5-min Rain = 0
KCR2 231240Z 22008KT 13/11 A3001 RMK A01 T01250112  RH  092%=      5-min Rain = 0
KCR2 231241Z 22008KT 13/11 A3001 RMK A01 T01250111  RH  091%=      5-min Rain = 0
KCR2 231242Z 21007KT 12/11 A3001 RMK A01 T01240111  RH  091%=      5-min Rain = 0
KCR2 231243Z 21007KT 12/11 A3001 RMK A01 T01240111  RH  092%=      5-min Rain = 0
KCR2 231244Z 20007KT 13/11 A3001 RMK A01 T01250111  RH  092%=      5-min Rain = 0
KCR2 231245Z 21007KT 12/11 A3001 RMK A01 T01240111  RH  091%=      5-min Rain = 0
KCR2 231246Z 21006KT 12/11 A3001 RMK A01 T01240110  RH  091%=      5-min Rain = 0
KCR2 231247Z 21009KT 12/11 A3001 RMK A01 T01230110  RH  092%=      5-min Rain = 0
KCR2 231248Z 20008KT 12/11 A3001 RMK A01 T01220111  RH  093%=      5-min Rain = 0
KCR2 231249Z 20007KT 12/11 A3001 RMK A01 T01230113  RH  093%=      5-min Rain = 0
KCR2 231250Z 20008KT 12/11 A3001 RMK A01 T01240113  RH  093%=      5-min Rain = 0
KCR2 231251Z 20007KT 12/11 A3001 RMK A01 T01230113  RH  093%=      5-min Rain = 0
KCR2 231252Z 20007KT 12/11 A3001 RMK A01 T01230113  RH  094%=      5-min Rain = 0
KCR2 231253Z 20007KT 12/11 A3002 RMK A01 T01220112  RH  094%=      5-min Rain = 0
KCR2 231254Z 21007KT 12/11 A3002 RMK A01 T01220112  RH  094%=      5-min Rain = 0
KCR2 231255Z 21007KT 12/11 A3002 RMK A01 T01210111  RH  093%=      5-min Rain = 0
KCR2 231256Z 20007KT 12/11 A3002 RMK A01 T01210111  RH  094%=      5-min Rain = 0
KCR2 231257Z 20008KT 12/11 A3002 RMK A01 T01210111  RH  094%=      5-min Rain = 0
KCR2 231258Z 21008KT 12/11 A3002 RMK A01 T01210112  RH  094%=      5-min Rain = 0
KCR2 231259Z 21007KT 12/11 A3002 RMK A01 T01210111  RH  094%=      5-min Rain = 0
KCR2 231300Z 21007KT 12/11 A3002 RMK A01 T01210111  RH  094%=      5-min Rain = 0
KCR2 231301Z 21007KT 12/11 A3002 RMK A01 T01210111  RH  094%=      5-min Rain = 0
KCR2 231302Z 21007KT 12/11 A3002 RMK A01 T01210111  RH  094%=      5-min Rain = 0
KCR2 231303Z 21007KT 12/11 A3002 RMK A01 T01210111  RH  093%=      5-min Rain = 0
KCR2 231304Z 22007KT 12/11 A3002 RMK A01 T01200110  RH  093%=      5-min Rain = 0
KCR2 231305Z 22007KT 12/11 A3002 RMK A01 T01200110  RH  093%=      5-min Rain = 0
KCR2 231306Z 21007KT 12/11 A3002 RMK A01 T01200109  RH  093%=      5-min Rain = 0
KCR2 231307Z 21007KT 12/11 A3002 RMK A01 T01190109  RH  094%=      5-min Rain = 0
KCR2 231308Z 22007KT 12/11 A3002 RMK A01 T01200110  RH  094%=      5-min Rain = 0
KCR2 231309Z 22006KT 12/11 A3003 RMK A01 T01190109  RH  094%=      5-min Rain = 0
KCR2 231310Z 22006KT 12/11 A3003 RMK A01 T01190110  RH  094%=      5-min Rain = 0
KCR2 231311Z 22006KT 12/11 A3003 RMK A01 T01200110  RH  094%=      5-min Rain = 0
KCR2 231312Z 22007KT 12/11 A3003 RMK A01 T01200110  RH  093%=      5-min Rain = 0
KCR2 231313Z 21008KT 12/11 A3003 RMK A01 T01200109  RH  093%=      5-min Rain = 0
KCR2 231314Z 22008KT 12/11 A3003 RMK A01 T01200110  RH  093%=      5-min Rain = 0
KCR2 231315Z 22007KT 12/11 A3003 RMK A01 T01200109  RH  093%=      5-min Rain = 0
KCR2 231316Z 22006KT 12/11 A3003 RMK A01 T01200109  RH  093%=      5-min Rain = 0
KCR2 231317Z 22006KT 12/11 A3003 RMK A01 T01200110  RH  093%=      5-min Rain = 0
KCR2 231318Z 22007KT 12/11 A3003 RMK A01 T01200109  RH  093%=      5-min Rain = 0
KCR2 231319Z 22006KT 12/11 A3003 RMK A01 T01200109  RH  093%=      5-min Rain = 0
KCR2 231320Z 23007KT 12/11 A3003 RMK A01 T01210109  RH  093%=      5-min Rain = 0
KCR2 231321Z 22006KT 12/11 A3003 RMK A01 T01210110  RH  093%=      5-min Rain = 0
KCR2 231322Z 22007KT 12/11 A3003 RMK A01 T01220110  RH  093%=      5-min Rain = 0
KCR2 231323Z 22007KT 12/11 A3003 RMK A01 T01210109  RH  092%=      5-min Rain = 0
KCR2 231324Z 22006KT 12/11 A3004 RMK A01 T01220110  RH  092%=      5-min Rain = 0
KCR2 231325Z 23006KT 12/11 A3004 RMK A01 T01220110  RH  092%=      5-min Rain = 0
KCR2 231326Z 23007KT 12/11 A3004 RMK A01 T01220110  RH  092%=      5-min Rain = 0
KCR2 231327Z 23007KT 12/11 A3004 RMK A01 T01220110  RH  092%=      5-min Rain = 0
KCR2 231328Z 23006KT 12/11 A3004 RMK A01 T01220110  RH  092%=      5-min Rain = 0
KCR2 231329Z 24006KT 12/11 A3004 RMK A01 T01220110  RH  092%=      5-min Rain = 0
KCR2 231330Z 24006KT 12/11 A3004 RMK A01 T01220110  RH  092%=      5-min Rain = 0
KCR2 231331Z 23006KT 12/11 A3004 RMK A01 T01220110  RH  092%=      5-min Rain = 0
KCR2 231332Z 23007KT 12/11 A3004 RMK A01 T01220110  RH  092%=      5-min Rain = 0
KCR2 231333Z 23007KT 12/11 A3004 RMK A01 T01220110  RH  092%=      5-min Rain = 0
KCR2 231334Z 23007KT 12/11 A3004 RMK A01 T01220110  RH  092%=      5-min Rain = 0
KCR2 231335Z 23006KT 12/11 A3004 RMK A01 T01220110  RH  092%=      5-min Rain = 0
KCR2 231336Z 23006KT 12/11 A3004 RMK A01 T01230110  RH  092%=      5-min Rain = 0
KCR2 231337Z 23007KT 12/11 A3004 RMK A01 T01230110  RH  092%=      5-min Rain = 0
KCR2 231338Z 23006KT 12/11 A3004 RMK A01 T01230110  RH  092%=      5-min Rain = 0
KCR2 231339Z 23006KT 12/11 A3004 RMK A01 T01230111  RH  092%=      5-min Rain = 0
KCR2 231340Z 23007KT 12/11 A3004 RMK A01 T01230110  RH  092%=      5-min Rain = 0
KCR2 231341Z 23007KT 12/11 A3004 RMK A01 T01230109  RH  091%=      5-min Rain = 0
KCR2 231342Z 23007KT 12/11 A3005 RMK A01 T01230108  RH  090%=      5-min Rain = 0
KCR2 231343Z 23007KT 12/11 A3005 RMK A01 T01230108  RH  090%=      5-min Rain = 0
KCR2 231344Z 22006KT 12/11 A3005 RMK A01 T01240108  RH  090%=      5-min Rain = 0
KCR2 231345Z 23007KT 12/11 A3005 RMK A01 T01240108  RH  090%=      5-min Rain = 0
KCR2 231346Z 23009KT 12/11 A3005 RMK A01 T01240106  RH  089%=      5-min Rain = 0
KCR2 231347Z 23008KT 12/10 A3005 RMK A01 T01240099  RH  085%=      5-min Rain = 0
KCR2 231348Z 23007KT 12/10 A3005 RMK A01 T01240100  RH  085%=      5-min Rain = 0
KCR2 231349Z 23007KT 12/10 A3005 RMK A01 T01240101  RH  086%=      5-min Rain = 0
KCR2 231350Z 23008KT 13/10 A3005 RMK A01 T01250100  RH  085%=      5-min Rain = 0
KCR2 231351Z 23008KT 13/10 A3005 RMK A01 T01250099  RH  084%=      5-min Rain = 0
KCR2 231352Z 22008KT 13/10 A3005 RMK A01 T01250099  RH  084%=      5-min Rain = 0
KCR2 231353Z 23007KT 13/10 A3005 RMK A01 T01250095  RH  082%=      5-min Rain = 0
KCR2 231354Z 23007KT 13/10 A3005 RMK A01 T01250095  RH  082%=      5-min Rain = 0
KCR2 231355Z 23008KT 13/09 A3005 RMK A01 T01250094  RH  082%=      5-min Rain = 0
KCR2 231356Z 23007KT 13/09 A3005 RMK A01 T01250093  RH  081%=      5-min Rain = 0
KCR2 231357Z 22007KT 13/09 A3005 RMK A01 T01250093  RH  081%=      5-min Rain = 0
KCR2 231358Z 23006KT 13/09 A3005 RMK A01 T01260094  RH  081%=      5-min Rain = 0
KCR2 231359Z 23007KT 13/10 A3005 RMK A01 T01260096  RH  082%=      5-min Rain = 0
KCR2 231400Z 23007KT 13/09 A3005 RMK A01 T01260092  RH  080%=      5-min Rain = 0
KCR2 231401Z 24006KT 13/09 A3005 RMK A01 T01260091  RH  080%=      5-min Rain = 0
KCR2 231402Z 24007KT 13/09 A3005 RMK A01 T01260088  RH  078%=      5-min Rain = 0
KCR2 231403Z 24007KT 13/09 A3005 RMK A01 T01260087  RH  077%=      5-min Rain = 0
KCR2 231404Z 24006KT 13/09 A3005 RMK A01 T01250087  RH  077%=      5-min Rain = 0
KCR2 231405Z 24005KT 13/09 A3005 RMK A01 T01250089  RH  079%=      5-min Rain = 0
KCR2 231406Z 23006KT 13/09 A3005 RMK A01 T01250091  RH  079%=      5-min Rain = 0
KCR2 231407Z 23006KT 13/09 A3005 RMK A01 T01260092  RH  080%=      5-min Rain = 0
KCR2 231408Z 23006KT 13/09 A3005 RMK A01 T01260090  RH  079%=      5-min Rain = 0
KCR2 231409Z 23007KT 13/09 A3005 RMK A01 T01260090  RH  079%=      5-min Rain = 0
KCR2 231410Z 24007KT 13/09 A3005 RMK A01 T01250089  RH  079%=      5-min Rain = 0
KCR2 231411Z 24006KT 13/09 A3005 RMK A01 T01250090  RH  079%=      5-min Rain = 0
KCR2 231412Z 23005KT 13/09 A3005 RMK A01 T01250093  RH  081%=      5-min Rain = 0
KCR2 231413Z 22006KT 13/09 A3005 RMK A01 T01260093  RH  080%=      5-min Rain = 0
KCR2 231414Z 22006KT 13/09 A3005 RMK A01 T01270091  RH  079%=      5-min Rain = 0
KCR2 231415Z 23006KT 13/09 A3005 RMK A01 T01270089  RH  078%=      5-min Rain = 0
KCR2 231416Z 23006KT 13/09 A3006 RMK A01 T01260090  RH  079%=      5-min Rain = 0
KCR2 231417Z 23006KT 13/09 A3006 RMK A01 T01270090  RH  078%=      5-min Rain = 0
KCR2 231418Z 23006KT 13/09 A3006 RMK A01 T01260089  RH  078%=      5-min Rain = 0
KCR2 231419Z 23006KT 13/09 A3006 RMK A01 T01270091  RH  079%=      5-min Rain = 0
KCR2 231420Z 23006KT 13/09 A3006 RMK A01 T01260092  RH  079%=      5-min Rain = 0
KCR2 231421Z 23006KT 13/09 A3006 RMK A01 T01260094  RH  081%=      5-min Rain = 0
KCR2 231422Z 23005KT 13/10 A3006 RMK A01 T01270095  RH  081%=      5-min Rain = 0
KCR2 231423Z 23005KT 13/10 A3006 RMK A01 T01280095  RH  081%=      5-min Rain = 0
KCR2 231424Z 23005KT 13/09 A3006 RMK A01 T01280094  RH  080%=      5-min Rain = 0
KCR2 231425Z 23006KT 13/10 A3006 RMK A01 T01280096  RH  081%=      5-min Rain = 0
KCR2 231426Z 23006KT 13/10 A3006 RMK A01 T01280097  RH  081%=      5-min Rain = 0
KCR2 231427Z 23006KT 13/10 A3006 RMK A01 T01290097  RH  081%=      5-min Rain = 0
KCR2 231428Z 22006KT 13/10 A3006 RMK A01 T01290099  RH  082%=      5-min Rain = 0
KCR2 231429Z 22006KT 13/10 A3006 RMK A01 T01300099  RH  082%=      5-min Rain = 0
KCR2 231430Z 23006KT 13/10 A3006 RMK A01 T01300100  RH  082%=      5-min Rain = 0
KCR2 231431Z 23005KT 13/10 A3006 RMK A01 T01310101  RH  082%=      5-min Rain = 0
KCR2 231432Z 22005KT 13/10 A3006 RMK A01 T01310101  RH  082%=      5-min Rain = 0
KCR2 231433Z 22006KT 13/10 A3006 RMK A01 T01320102  RH  082%=      5-min Rain = 0
KCR2 231434Z 23006KT 13/10 A3006 RMK A01 T01320100  RH  081%=      5-min Rain = 0
KCR2 231435Z 23006KT 13/10 A3006 RMK A01 T01320101  RH  081%=      5-min Rain = 0
KCR2 231436Z 23005KT 13/10 A3006 RMK A01 T01320101  RH  081%=      5-min Rain = 0
KCR2 231437Z 23005KT 13/10 A3006 RMK A01 T01330102  RH  082%=      5-min Rain = 0
KCR2 231438Z 24005KT 13/10 A3006 RMK A01 T01340103  RH  082%=      5-min Rain = 0
KCR2 231439Z 22006KT 13/10 A3006 RMK A01 T01340103  RH  081%=      5-min Rain = 0
KCR2 231440Z 22006KT 13/10 A3006 RMK A01 T01340101  RH  080%=      5-min Rain = 0
KCR2 231441Z 22006KT 14/10 A3006 RMK A01 T01350101  RH  080%=      5-min Rain = 0
KCR2 231442Z 24005KT 14/10 A3006 RMK A01 T01360102  RH  080%=      5-min Rain = 0
KCR2 231443Z 24006KT 14/10 A3006 RMK A01 T01370101  RH  079%=      5-min Rain = 0
KCR2 231444Z 24005KT 14/10 A3007 RMK A01 T01370099  RH  078%=      5-min Rain = 0
KCR2 231445Z 23006KT 14/10 A3007 RMK A01 T01370099  RH  078%=      5-min Rain = 0
KCR2 231446Z 23006KT 14/10 A3007 RMK A01 T01370100  RH  078%=      5-min Rain = 0
KCR2 231447Z 24007KT 14/10 A3007 RMK A01 T01370101  RH  079%=      5-min Rain = 0
KCR2 231448Z 24006KT 14/10 A3007 RMK A01 T01380104  RH  080%=      5-min Rain = 0
KCR2 231449Z 23006KT 14/10 A3007 RMK A01 T01400104  RH  079%=      5-min Rain = 0
KCR2 231450Z 23006KT 14/10 A3007 RMK A01 T01410104  RH  078%=      5-min Rain = 0
KCR2 231451Z 23006KT 14/10 A3007 RMK A01 T01410103  RH  078%=      5-min Rain = 0
KCR2 231452Z 23007KT 14/10 A3007 RMK A01 T01410102  RH  077%=      5-min Rain = 0
KCR2 231453Z 23007KT 14/10 A3007 RMK A01 T01410101  RH  077%=      5-min Rain = 0
KCR2 231454Z 23007KT 14/10 A3007 RMK A01 T01400102  RH  078%=      5-min Rain = 0
KCR2 231455Z 23006KT 14/10 A3007 RMK A01 T01400101  RH  077%=      5-min Rain = 0
KCR2 231456Z 23006KT 14/10 A3007 RMK A01 T01400100  RH  077%=      5-min Rain = 0
KCR2 231457Z 23006KT 14/10 A3007 RMK A01 T01400102  RH  078%=      5-min Rain = 0
KCR2 231458Z 23007KT 14/10 A3007 RMK A01 T01410101  RH  077%=      5-min Rain = 0
KCR2 231459Z 24006KT 14/10 A3007 RMK A01 T01410100  RH  076%=      5-min Rain = 0
KCR2 231500Z 23006KT 14/10 A3007 RMK A01 T01410101  RH  077%=      5-min Rain = 0
KCR2 231501Z 23006KT 14/10 A3007 RMK A01 T01420104  RH  078%=      5-min Rain = 0
KCR2 231502Z 23006KT 14/10 A3007 RMK A01 T01430101  RH  076%=      5-min Rain = 0
KCR2 231503Z 24005KT 14/10 A3007 RMK A01 T01430103  RH  077%=      5-min Rain = 0
KCR2 231504Z 24006KT 15/11 A3007 RMK A01 T01450108  RH  078%=      5-min Rain = 0
KCR2 231505Z 23007KT 15/11 A3007 RMK A01 T01460106  RH  077%=      5-min Rain = 0
KCR2 231506Z 24006KT 15/11 A3008 RMK A01 T01460105  RH  076%=      5-min Rain = 0
KCR2 231507Z 24006KT 15/11 A3008 RMK A01 T01460106  RH  077%=      5-min Rain = 0
KCR2 231508Z 24006KT 15/11 A3008 RMK A01 T01460110  RH  079%=      5-min Rain = 0
KCR2 231509Z 23005KT 15/11 A3008 RMK A01 T01470108  RH  077%=      5-min Rain = 0
KCR2 231510Z 23005KT 15/11 A3008 RMK A01 T01470107  RH  077%=      5-min Rain = 0
KCR2 231511Z 22006KT 15/11 A3008 RMK A01 T01470108  RH  077%=      5-min Rain = 0
KCR2 231512Z 25006KT 15/11 A3008 RMK A01 T01480111  RH  078%=      5-min Rain = 0
KCR2 231513Z 25005KT 15/11 A3008 RMK A01 T01490110  RH  077%=      5-min Rain = 0
KCR2 231514Z 25005KT 15/11 A3008 RMK A01 T01490110  RH  077%=      5-min Rain = 0
KCR2 231515Z 27005KT 15/11 A3008 RMK A01 T01490110  RH  078%=      5-min Rain = 0
KCR2 231516Z 26005KT 15/11 A3008 RMK A01 T01490112  RH  078%=      5-min Rain = 0
KCR2 231517Z 26006KT 15/11 A3008 RMK A01 T01490110  RH  077%=      5-min Rain = 0
KCR2 231518Z 25005KT 15/11 A3008 RMK A01 T01490108  RH  077%=      5-min Rain = 0
KCR2 231519Z 25005KT 15/11 A3008 RMK A01 T01480110  RH  078%=      5-min Rain = 0
KCR2 231520Z 24005KT 15/11 A3008 RMK A01 T01480108  RH  077%=      5-min Rain = 0
KCR2 231521Z 24006KT 15/11 A3008 RMK A01 T01490111  RH  078%=      5-min Rain = 0
KCR2 231522Z 24005KT 15/11 A3008 RMK A01 T01500111  RH  077%=      5-min Rain = 0
KCR2 231523Z 24006KT 15/11 A3008 RMK A01 T01520111  RH  077%=      5-min Rain = 0
KCR2 231524Z 23005KT 15/11 A3008 RMK A01 T01530111  RH  076%=      5-min Rain = 0
KCR2 231525Z 25005KT 15/11 A3008 RMK A01 T01530110  RH  076%=      5-min Rain = 0
KCR2 231526Z 26005KT 15/11 A3008 RMK A01 T01530109  RH  075%=      5-min Rain = 0
KCR2 231527Z 25005KT 15/11 A3008 RMK A01 T01530111  RH  076%=      5-min Rain = 0
KCR2 231528Z 25005KT 15/11 A3008 RMK A01 T01540110  RH  075%=      5-min Rain = 0
KCR2 231529Z 24007KT 15/11 A3008 RMK A01 T01540110  RH  075%=      5-min Rain = 0
KCR2 231530Z 23006KT 16/11 A3008 RMK A01 T01550110  RH  075%=      5-min Rain = 0
KCR2 231531Z 24007KT 15/11 A3008 RMK A01 T01540110  RH  075%=      5-min Rain = 0
KCR2 231532Z 24006KT 16/11 A3008 RMK A01 T01550110  RH  075%=      5-min Rain = 0
KCR2 231533Z 25004KT 15/11 A3008 RMK A01 T01540107  RH  074%=      5-min Rain = 0
KCR2 231534Z 24002KT 15/11 A3008 RMK A01 T01530107  RH  074%=      5-min Rain = 0
KCR2 231535Z 22003KT 15/11 A3008 RMK A01 T01530107  RH  074%=      5-min Rain = 0
KCR2 231536Z 25002KT 16/11 A3008 RMK A01 T01550108  RH  074%=      5-min Rain = 0
KCR2 231537Z 23003KT 16/11 A3008 RMK A01 T01560108  RH  073%=      5-min Rain = 0
KCR2 231538Z 23003KT 16/11 A3008 RMK A01 T01580107  RH  071%=      5-min Rain = 0
KCR2 231539Z 24004KT 16/11 A3008 RMK A01 T01590110  RH  073%=      5-min Rain = 0
KCR2 231540Z 24004KT 16/11 A3008 RMK A01 T01590107  RH  071%=      5-min Rain = 0
KCR2 231541Z 24005KT 16/11 A3008 RMK A01 T01590108  RH  072%=      5-min Rain = 0
KCR2 231542Z 23003KT 16/11 A3008 RMK A01 T01590106  RH  070%=      5-min Rain = 0
KCR2 231543Z 23005KT 16/11 A3008 RMK A01 T01590106  RH  071%=      5-min Rain = 0
KCR2 231544Z 22005KT 16/11 A3008 RMK A01 T01600105  RH  070%=      5-min Rain = 0
KCR2 231545Z 22005KT 16/11 A3008 RMK A01 T01610109  RH  071%=      5-min Rain = 0
KCR2 231546Z 23004KT 16/11 A3008 RMK A01 T01630108  RH  070%=      5-min Rain = 0
KCR2 231547Z 27003KT 16/10 A3008 RMK A01 T01640104  RH  068%=      5-min Rain = 0
KCR2 231548Z 28002KT 17/10 A3008 RMK A01 T01650098  RH  064%=      5-min Rain = 0
KCR2 231549Z 29002KT 17/09 A3008 RMK A01 T01650093  RH  062%=      5-min Rain = 0
KCR2 231550Z 24002KT 17/10 A3008 RMK A01 T01650097  RH  064%=      5-min Rain = 0
KCR2 231551Z 26002KT 17/10 A3008 RMK A01 T01650098  RH  065%=      5-min Rain = 0
KCR2 231552Z 28002KT 17/10 A3008 RMK A01 T01650102  RH  066%=      5-min Rain = 0
KCR2 231553Z 21001KT 17/10 A3008 RMK A01 T01670102  RH  065%=      5-min Rain = 0
KCR2 231554Z 24003KT 17/10 A3008 RMK A01 T01680102  RH  065%=      5-min Rain = 0
KCR2 231555Z 24003KT 17/10 A3008 RMK A01 T01680102  RH  065%=      5-min Rain = 0
KCR2 231556Z 23003KT 17/10 A3008 RMK A01 T01680098  RH  063%=      5-min Rain = 0
KCR2 231557Z 22003KT 17/10 A3008 RMK A01 T01680099  RH  064%=      5-min Rain = 0
KCR2 231558Z 22003KT 17/10 A3008 RMK A01 T01670097  RH  063%=      5-min Rain = 0
KCR2 231559Z 20002KT 17/10 A3008 RMK A01 T01670096  RH  063%=      5-min Rain = 0
KCR2 231600Z 22003KT 17/10 A3008 RMK A01 T01670098  RH  063%=      5-min Rain = 0
KCR2 231601Z 22002KT 17/10 A3008 RMK A01 T01680096  RH  062%=      5-min Rain = 0
KCR2 231602Z 22002KT 17/10 A3008 RMK A01 T01690097  RH  062%=      5-min Rain = 0
KCR2 231603Z 22002KT 17/09 A3008 RMK A01 T01700094  RH  061%=      5-min Rain = 0
KCR2 231604Z 25001KT 17/09 A3008 RMK A01 T01710094  RH  060%=      5-min Rain = 0
KCR2 231605Z 27001KT 17/09 A3008 RMK A01 T01720093  RH  060%=      5-min Rain = 0
KCR2 231606Z 29001KT 17/09 A3008 RMK A01 T01730093  RH  059%=      5-min Rain = 0
KCR2 231607Z 32001KT 17/10 A3008 RMK A01 T01740096  RH  060%=      5-min Rain = 0
KCR2 231608Z 31001KT 18/09 A3008 RMK A01 T01750092  RH  058%=      5-min Rain = 0
KCR2 231609Z 32001KT 18/10 A3008 RMK A01 T01750095  RH  059%=      5-min Rain = 0
KCR2 231610Z 34002KT 18/09 A3008 RMK A01 T01760092  RH  058%=      5-min Rain = 0
KCR2 231611Z 32001KT 18/09 A3008 RMK A01 T01760091  RH  057%=      5-min Rain = 0
KCR2 231612Z 29000KT 18/09 A3008 RMK A01 T01770089  RH  056%=      5-min Rain = 0
KCR2 231613Z 29003KT 18/09 A3008 RMK A01 T01780090  RH  056%=      5-min Rain = 0
KCR2 231614Z 28002KT 18/09 A3008 RMK A01 T01790090  RH  056%=      5-min Rain = 0
KCR2 231615Z 26002KT 18/09 A3008 RMK A01 T01800090  RH  056%=      5-min Rain = 0
KCR2 231616Z 27002KT 18/09 A3008 RMK A01 T01800087  RH  055%=      5-min Rain = 0
KCR2 231617Z 30002KT 18/08 A3008 RMK A01 T01790082  RH  053%=      5-min Rain = 0
KCR2 231618Z 27001KT 18/08 A3008 RMK A01 T01790082  RH  053%=      5-min Rain = 0
KCR2 231619Z 22001KT 18/08 A3008 RMK A01 T01790083  RH  053%=      5-min Rain = 0
KCR2 231620Z 22001KT 18/09 A3008 RMK A01 T01810085  RH  054%=      5-min Rain = 0
KCR2 231621Z 29001KT 18/09 A3008 RMK A01 T01810086  RH  054%=      5-min Rain = 0
KCR2 231622Z 29000KT 18/09 A3008 RMK A01 T01820088  RH  054%=      5-min Rain = 0
KCR2 231623Z 29002KT 18/08 A3008 RMK A01 T01840080  RH  051%=      5-min Rain = 0
KCR2 231624Z 30006KT 18/08 A3008 RMK A01 T01840083  RH  052%=      5-min Rain = 0
KCR2 231625Z 12002KT 19/09 A3008 RMK A01 T01860091  RH  054%=      5-min Rain = 0
KCR2 231626Z 06002KT 19/09 A3008 RMK A01 T01890088  RH  052%=      5-min Rain = 0
KCR2 231627Z 02001KT 19/08 A3008 RMK A01 T01890081  RH  049%=      5-min Rain = 0
KCR2 231628Z 33002KT 19/08 A3008 RMK A01 T01900083  RH  050%=      5-min Rain = 0
KCR2 231629Z 03002KT 19/08 A3008 RMK A01 T01910078  RH  048%=      5-min Rain = 0
KCR2 231630Z 02002KT 19/07 A3008 RMK A01 T01900072  RH  046%=      5-min Rain = 0
KCR2 231631Z 02003KT 19/08 A3008 RMK A01 T01890075  RH  048%=      5-min Rain = 0
KCR2 231632Z 02004KT 19/08 A3008 RMK A01 T01880078  RH  049%=      5-min Rain = 0
KCR2 231633Z 02004KT 19/08 A3008 RMK A01 T01870081  RH  050%=      5-min Rain = 0
KCR2 231634Z 36004KT 19/08 A3008 RMK A01 T01870081  RH  050%=      5-min Rain = 0
KCR2 231635Z 36003KT 19/08 A3008 RMK A01 T01850077  RH  049%=      5-min Rain = 0
KCR2 231636Z 32003KT 18/08 A3008 RMK A01 T01840077  RH  050%=      5-min Rain = 0
KCR2 231637Z 35001KT 18/08 A3008 RMK A01 T01840076  RH  050%=      5-min Rain = 0
KCR2 231638Z 01001KT 18/07 A3008 RMK A01 T01840073  RH  048%=      5-min Rain = 0
KCR2 231639Z 07002KT 18/07 A3008 RMK A01 T01840073  RH  048%=      5-min Rain = 0
KCR2 231640Z 07004KT 19/07 A3008 RMK A01 T01850068  RH  046%=      5-min Rain = 0
KCR2 231641Z 06003KT 19/07 A3008 RMK A01 T01850069  RH  047%=      5-min Rain = 0
KCR2 231642Z 09003KT 19/07 A3008 RMK A01 T01850071  RH  048%=      5-min Rain = 0
KCR2 231643Z 10003KT 19/07 A3008 RMK A01 T01850067  RH  046%=      5-min Rain = 0
KCR2 231644Z 11002KT 19/07 A3008 RMK A01 T01860065  RH  045%=      5-min Rain = 0
KCR2 231645Z 14002KT 19/07 A3008 RMK A01 T01860066  RH  045%=      5-min Rain = 0
KCR2 231646Z 12001KT 19/07 A3008 RMK A01 T01870068  RH  046%=      5-min Rain = 0
KCR2 231647Z 08000KT 19/06 A3008 RMK A01 T01880064  RH  044%=      5-min Rain = 0
KCR2 231648Z 08003KT 19/07 A3008 RMK A01 T01900070  RH  046%=      5-min Rain = 0
KCR2 231649Z 07004KT 19/07 A3008 RMK A01 T01900072  RH  046%=      5-min Rain = 0
KCR2 231650Z 07004KT 19/07 A3008 RMK A01 T01890069  RH  046%=      5-min Rain = 0
KCR2 231651Z 06004KT 19/07 A3008 RMK A01 T01880069  RH  046%=      5-min Rain = 0
KCR2 231652Z 03003KT 19/07 A3008 RMK A01 T01880067  RH  045%=      5-min Rain = 0
KCR2 231653Z 01002KT 19/07 A3008 RMK A01 T01880070  RH  046%=      5-min Rain = 0
KCR2 231654Z 36001KT 19/07 A3008 RMK A01 T01870065  RH  045%=      5-min Rain = 0
KCR2 231655Z 35001KT 19/07 A3008 RMK A01 T01880068  RH  046%=      5-min Rain = 0
KCR2 231656Z 02001KT 19/06 A3008 RMK A01 T01890063  RH  044%=      5-min Rain = 0
KCR2 231657Z 01002KT 19/07 A3008 RMK A01 T01900070  RH  046%=      5-min Rain = 0
KCR2 231658Z 02003KT 19/07 A3008 RMK A01 T01920071  RH  046%=      5-min Rain = 0
KCR2 231659Z 01002KT 19/07 A3008 RMK A01 T01920068  RH  045%=      5-min Rain = 0
KCR2 231700Z 36002KT 19/07 A3008 RMK A01 T01910067  RH  044%=      5-min Rain = 0
KCR2 231701Z 00001KT 19/07 A3008 RMK A01 T01910070  RH  045%=      5-min Rain = 0
KCR2 231702Z 00002KT 19/07 A3008 RMK A01 T01930070  RH  045%=      5-min Rain = 0
KCR2 231703Z 02000KT 19/07 A3008 RMK A01 T01930068  RH  044%=      5-min Rain = 0
KCR2 231704Z 07002KT 19/07 A3008 RMK A01 T01930067  RH  044%=      5-min Rain = 0
KCR2 231705Z 08004KT 20/07 A3008 RMK A01 T01950066  RH  043%=      5-min Rain = 0
KCR2 231706Z 08005KT 20/07 A3008 RMK A01 T01960066  RH  043%=      5-min Rain = 0
KCR2 231707Z 08003KT 20/07 A3008 RMK A01 T01960065  RH  042%=      5-min Rain = 0
KCR2 231708Z 07003KT 20/06 A3008 RMK A01 T01950063  RH  042%=      5-min Rain = 0
KCR2 231709Z 08001KT 20/06 A3008 RMK A01 T01950058  RH  041%=      5-min Rain = 0
KCR2 231710Z 03000KT 20/06 A3008 RMK A01 T01950058  RH  041%=      5-min Rain = 0
KCR2 231711Z 07002KT 20/06 A3008 RMK A01 T01960060  RH  041%=      5-min Rain = 0
KCR2 231712Z 09002KT 20/06 A3008 RMK A01 T01980060  RH  041%=      5-min Rain = 0
KCR2 231713Z 09004KT 20/06 A3008 RMK A01 T01980061  RH  041%=      5-min Rain = 0
KCR2 231714Z 09005KT 20/06 A3008 RMK A01 T01990063  RH  041%=      5-min Rain = 0
KCR2 231715Z 08006KT 20/07 A3008 RMK A01 T01990065  RH  041%=      5-min Rain = 0
KCR2 231716Z 08005KT 20/06 A3008 RMK A01 T01990055  RH  039%=      5-min Rain = 0
KCR2 231717Z 13001KT 20/06 A3008 RMK A01 T01980057  RH  040%=      5-min Rain = 0
KCR2 231718Z 18001KT 20/06 A3008 RMK A01 T01980057  RH  040%=      5-min Rain = 0
KCR2 231719Z 09002KT 20/06 A3008 RMK A01 T01990060  RH  040%=      5-min Rain = 0
KCR2 231720Z 06005KT 20/06 A3008 RMK A01 T02000059  RH  040%=      5-min Rain = 0
KCR2 231721Z 09002KT 20/05 A3008 RMK A01 T02000049  RH  037%=      5-min Rain = 0
KCR2 231722Z 04003KT 20/06 A3008 RMK A01 T01980055  RH  039%=      5-min Rain = 0
KCR2 231723Z 04002KT 20/06 A3008 RMK A01 T01980057  RH  039%=      5-min Rain = 0
KCR2 231724Z 04003KT 20/06 A3008 RMK A01 T01980057  RH  040%=      5-min Rain = 0
KCR2 231725Z 05003KT 20/06 A3008 RMK A01 T01980063  RH  041%=      5-min Rain = 0
KCR2 231726Z 05004KT 20/06 A3008 RMK A01 T01980062  RH  041%=      5-min Rain = 0
KCR2 231727Z 03003KT 20/07 A3008 RMK A01 T01990069  RH  043%=      5-min Rain = 0
KCR2 231728Z 01003KT 20/07 A3008 RMK A01 T02010065  RH  041%=      5-min Rain = 0
KCR2 231729Z 01001KT 20/06 A3008 RMK A01 T02010061  RH  040%=      5-min Rain = 0
KCR2 231730Z 02000KT 20/07 A3007 RMK A01 T02000066  RH  042%=      5-min Rain = 0
KCR2 231731Z 01002KT 20/07 A3007 RMK A01 T02020070  RH  042%=      5-min Rain = 0
KCR2 231732Z 02004KT 20/06 A3007 RMK A01 T02040064  RH  040%=      5-min Rain = 0
KCR2 231733Z 34003KT 20/07 A3007 RMK A01 T02040065  RH  040%=      5-min Rain = 0
KCR2 231734Z 34002KT 21/06 A3007 RMK A01 T02050058  RH  038%=      5-min Rain = 0
KCR2 231735Z 36002KT 21/06 A3007 RMK A01 T02060057  RH  038%=      5-min Rain = 0
KCR2 231736Z 35000KT 21/06 A3007 RMK A01 T02070057  RH  038%=      5-min Rain = 0
KCR2 231737Z 01000KT 21/06 A3007 RMK A01 T02070057  RH  037%=      5-min Rain = 0
KCR2 231738Z 08001KT 21/06 A3007 RMK A01 T02080063  RH  039%=      5-min Rain = 0
KCR2 231739Z 12002KT 21/06 A3007 RMK A01 T02090064  RH  039%=      5-min Rain = 0
KCR2 231740Z 14003KT 21/06 A3007 RMK A01 T02100060  RH  037%=      5-min Rain = 0
KCR2 231741Z 15002KT 21/05 A3007 RMK A01 T02100054  RH  036%=      5-min Rain = 0
KCR2 231742Z 13003KT 21/06 A3007 RMK A01 T02100058  RH  037%=      5-min Rain = 0
KCR2 231743Z 12004KT 21/06 A3007 RMK A01 T02100056  RH  037%=      5-min Rain = 0
KCR2 231744Z 12004KT 21/05 A3007 RMK A01 T02080053  RH  036%=      5-min Rain = 0
KCR2 231745Z 13002KT 21/05 A3007 RMK A01 T02060047  RH  035%=      5-min Rain = 0
KCR2 231746Z 14000KT 21/04 A3007 RMK A01 T02060042  RH  034%=      5-min Rain = 0
KCR2 231747Z 00000KT 21/05 A3007 RMK A01 T02060047  RH  035%=      5-min Rain = 0
KCR2 231748Z 12003KT 21/05 A3007 RMK A01 T02070047  RH  035%=      5-min Rain = 0
KCR2 231749Z 08003KT 21/04 A3007 RMK A01 T02080044  RH  034%=      5-min Rain = 0
KCR2 231750Z 08003KT 21/04 A3007 RMK A01 T02070043  RH  034%=      5-min Rain = 0
KCR2 231751Z 13006KT 21/04 A3007 RMK A01 T02060042  RH  034%=      5-min Rain = 0
KCR2 231752Z 13005KT 21/04 A3007 RMK A01 T02060039  RH  033%=      5-min Rain = 0
KCR2 231753Z 14002KT 21/04 A3007 RMK A01 T02060036  RH  033%=      5-min Rain = 0
KCR2 231754Z 09002KT 21/03 A3007 RMK A01 T02050032  RH  032%=      5-min Rain = 0
KCR2 231755Z 08001KT 21/03 A3007 RMK A01 T02060033  RH  032%=      5-min Rain = 0
KCR2 231756Z 17003KT 21/04 A3007 RMK A01 T02070038  RH  033%=      5-min Rain = 0
KCR2 231757Z 20004KT 21/04 A3006 RMK A01 T02080037  RH  032%=      5-min Rain = 0
KCR2 231758Z 20004KT 21/04 A3006 RMK A01 T02080040  RH  033%=      5-min Rain = 0
KCR2 231759Z 22004KT 21/04 A3006 RMK A01 T02080042  RH  034%=      5-min Rain = 0
KCR2 231800Z 23004KT 21/04 A3006 RMK A01 T02080043  RH  034%=      5-min Rain = 0
KCR2 231801Z 23004KT 21/04 A3006 RMK A01 T02090042  RH  033%=      5-min Rain = 0
KCR2 231802Z 18003KT 21/05 A3006 RMK A01 T02090045  RH  034%=      5-min Rain = 0
KCR2 231803Z 11004KT 21/04 A3006 RMK A01 T02100043  RH  033%=      5-min Rain = 0
KCR2 231804Z 09002KT 21/04 A3006 RMK A01 T02110037  RH  032%=      5-min Rain = 0
KCR2 231805Z 09002KT 21/04 A3006 RMK A01 T02100038  RH  032%=      5-min Rain = 0
KCR2 231806Z 06001KT 21/04 A3006 RMK A01 T02090041  RH  033%=      5-min Rain = 0
KCR2 231807Z 09000KT 21/04 A3006 RMK A01 T02090044  RH  034%=      5-min Rain = 0
KCR2 231808Z 00000KT 21/04 A3006 RMK A01 T02090043  RH  033%=      5-min Rain = 0
KCR2 231809Z 00000KT 21/04 A3006 RMK A01 T02110040  RH  032%=      5-min Rain = 0
KCR2 231810Z 27001KT 21/04 A3006 RMK A01 T02120039  RH  032%=      5-min Rain = 0
KCR2 231811Z 30001KT 21/04 A3006 RMK A01 T02120042  RH  033%=      5-min Rain = 0
KCR2 231812Z 34001KT 21/05 A3006 RMK A01 T02110045  RH  034%=      5-min Rain = 0
KCR2 231813Z 02001KT 21/05 A3005 RMK A01 T02120049  RH  034%=      5-min Rain = 0
KCR2 231814Z 02004KT 21/06 A3005 RMK A01 T02140058  RH  036%=      5-min Rain = 0
KCR2 231815Z 03004KT 22/05 A3005 RMK A01 T02150047  RH  033%=      5-min Rain = 0
KCR2 231816Z 04003KT 21/04 A3005 RMK A01 T02130044  RH  033%=      5-min Rain = 0
KCR2 231817Z 02003KT 21/05 A3005 RMK A01 T02120047  RH  034%=      5-min Rain = 0
KCR2 231818Z 36003KT 21/05 A3005 RMK A01 T02120047  RH  034%=      5-min Rain = 0
KCR2 231819Z 00003KT 21/05 A3005 RMK A01 T02120051  RH  035%=      5-min Rain = 0
KCR2 231820Z 05003KT 21/05 A3005 RMK A01 T02130053  RH  035%=      5-min Rain = 0
KCR2 231821Z 06002KT 21/05 A3005 RMK A01 T02140048  RH  034%=      5-min Rain = 0
KCR2 231822Z 07003KT 22/06 A3005 RMK A01 T02150056  RH  035%=      5-min Rain = 0
KCR2 231823Z 09004KT 22/05 A3005 RMK A01 T02170045  RH  033%=      5-min Rain = 0
KCR2 231824Z 09002KT 22/04 A3005 RMK A01 T02160040  RH  032%=      5-min Rain = 0
KCR2 231825Z 12003KT 22/04 A3005 RMK A01 T02150041  RH  032%=      5-min Rain = 0
KCR2 231826Z 11004KT 22/05 A3005 RMK A01 T02150046  RH  033%=      5-min Rain = 0
KCR2 231827Z 12004KT 22/05 A3005 RMK A01 T02170047  RH  033%=      5-min Rain = 0
KCR2 231828Z 17003KT 22/04 A3005 RMK A01 T02180044  RH  032%=      5-min Rain = 0
KCR2 231829Z 20002KT 22/04 A3005 RMK A01 T02170044  RH  032%=      5-min Rain = 0
KCR2 231830Z 20001KT 22/04 A3005 RMK A01 T02160044  RH  032%=      5-min Rain = 0
KCR2 231831Z 19001KT 22/05 A3005 RMK A01 T02170049  RH  033%=      5-min Rain = 0
KCR2 231832Z 09002KT 22/05 A3005 RMK A01 T02180047  RH  033%=      5-min Rain = 0
KCR2 231833Z 07003KT 22/05 A3004 RMK A01 T02190045  RH  032%=      5-min Rain = 0
KCR2 231834Z 07003KT 22/05 A3004 RMK A01 T02180045  RH  032%=      5-min Rain = 0
KCR2 231835Z 06002KT 22/05 A3004 RMK A01 T02160046  RH  033%=      5-min Rain = 0
KCR2 231836Z 09001KT 22/05 A3004 RMK A01 T02160048  RH  033%=      5-min Rain = 0
KCR2 231837Z 05001KT 22/05 A3004 RMK A01 T02160048  RH  033%=      5-min Rain = 0
KCR2 231838Z 05002KT 22/05 A3004 RMK A01 T02180054  RH  034%=      5-min Rain = 0
KCR2 231839Z 13001KT 22/05 A3004 RMK A01 T02190047  RH  033%=      5-min Rain = 0
KCR2 231840Z 19002KT 22/05 A3004 RMK A01 T02190049  RH  033%=      5-min Rain = 0
KCR2 231841Z 16002KT 22/05 A3004 RMK A01 T02210049  RH  033%=      5-min Rain = 0
KCR2 231842Z 16001KT 22/05 A3004 RMK A01 T02220047  RH  032%=      5-min Rain = 0
KCR2 231843Z 17004KT 22/05 A3004 RMK A01 T02230050  RH  032%=      5-min Rain = 0
KCR2 231844Z 17006KT 23/05 A3004 RMK A01 T02250046  RH  031%=      5-min Rain = 0
KCR2 231845Z 17002KT 22/04 A3004 RMK A01 T02230037  RH  029%=      5-min Rain = 0
KCR2 231846Z 16001KT 22/04 A3004 RMK A01 T02220044  RH  031%=      5-min Rain = 0
KCR2 231847Z 17003KT 22/04 A3004 RMK A01 T02230041  RH  031%=      5-min Rain = 0
KCR2 231848Z 17002KT 22/04 A3004 RMK A01 T02240038  RH  030%=      5-min Rain = 0
KCR2 231849Z 13003KT 23/04 A3004 RMK A01 T02250040  RH  030%=      5-min Rain = 0
KCR2 231850Z 19010G16KT 23/05 A3003 RMK A01 T02270045  RH  031%=      5-min Rain = 0
KCR2 231851Z 24005KT 23/04 A3004 RMK A01 T02290037  RH  029%=      5-min Rain = 0
KCR2 231852Z 23009KT 23/04 A3004 RMK A01 T02270040  RH  030%=      5-min Rain = 0
KCR2 231853Z 21009KT 23/03 A3004 RMK A01 T02290032  RH  027%=      5-min Rain = 0
KCR2 231854Z 21008KT 23/03 A3004 RMK A01 T02280027  RH  027%=      5-min Rain = 0
KCR2 231855Z 22004KT 23/03 A3004 RMK A01 T02250025  RH  027%=      5-min Rain = 0
KCR2 231856Z 23005KT 22/03 A3004 RMK A01 T02230030  RH  028%=      5-min Rain = 0
KCR2 231857Z 23005KT 23/03 A3004 RMK A01 T02250029  RH  028%=      5-min Rain = 0
KCR2 231858Z 24005KT 23/03 A3004 RMK A01 T02270026  RH  027%=      5-min Rain = 0
KCR2 231859Z 25006KT 23/02 A3004 RMK A01 T02300024  RH  026%=      5-min Rain = 0
KCR2 231900Z 27005KT 23/01 A3004 RMK A01 T02300006  RH  023%=      5-min Rain = 0
KCR2 231901Z 26007KT 23/M01 A3004 RMK A01 T02301005  RH  021%=      5-min Rain = 0
KCR2 231902Z 26008KT 23/M01 A3004 RMK A01 T02301013  RH  020%=      5-min Rain = 0
KCR2 231903Z 26009KT 23/M01 A3004 RMK A01 T02291012  RH  020%=      5-min Rain = 0
KCR2 231904Z 24007KT 23/M02 A3004 RMK A01 T02281017  RH  019%=      5-min Rain = 0
KCR2 231905Z 27009KT 23/M00 A3004 RMK A01 T02281003  RH  021%=      5-min Rain = 0
KCR2 231906Z 30006KT 23/00 A3004 RMK A01 T02300003  RH  022%=      5-min Rain = 0
KCR2 231907Z 30004KT 23/01 A3003 RMK A01 T02310013  RH  024%=      5-min Rain = 0
KCR2 231908Z 31004KT 23/01 A3003 RMK A01 T02330009  RH  023%=      5-min Rain = 0
KCR2 231909Z 30004KT 23/01 A3003 RMK A01 T02340009  RH  023%=      5-min Rain = 0
KCR2 231910Z 29008KT 23/01 A3003 RMK A01 T02330005  RH  022%=      5-min Rain = 0
KCR2 231911Z 25011KT 23/01 A3003 RMK A01 T02330010  RH  023%=      5-min Rain = 0
KCR2 231912Z 25010KT 24/M00 A3003 RMK A01 T02361002  RH  021%=      5-min Rain = 0
KCR2 231913Z 24009KT 23/M01 A3003 RMK A01 T02341013  RH  019%=      5-min Rain = 0
KCR2 231914Z 25011KT 23/M00 A3003 RMK A01 T02341001  RH  021%=      5-min Rain = 0
KCR2 231915Z 23010KT 23/M01 A3003 RMK A01 T02331005  RH  021%=      5-min Rain = 0
KCR2 231916Z 25010KT 23/M00 A3003 RMK A01 T02311004  RH  021%=      5-min Rain = 0
KCR2 231917Z 25010KT 23/M01 A3003 RMK A01 T02311008  RH  020%=      5-min Rain = 0
KCR2 231918Z 26010KT 23/M01 A3003 RMK A01 T02311007  RH  021%=      5-min Rain = 0
KCR2 231919Z 26009KT 23/M01 A3003 RMK A01 T02311006  RH  021%=      5-min Rain = 0
KCR2 231920Z 27007KT 23/M00 A3003 RMK A01 T02311004  RH  021%=      5-min Rain = 0
KCR2 231921Z 27008KT 23/01 A3003 RMK A01 T02320005  RH  022%=      5-min Rain = 0
KCR2 231922Z 29006KT 23/M01 A3003 RMK A01 T02331013  RH  019%=      5-min Rain = 0
KCR2 231923Z 29003KT 23/M01 A3003 RMK A01 T02321012  RH  020%=      5-min Rain = 0
KCR2 231924Z 25007KT 23/M00 A3002 RMK A01 T02321004  RH  021%=      5-min Rain = 0
KCR2 231925Z 26005KT 24/M01 A3003 RMK A01 T02351008  RH  020%=      5-min Rain = 0
KCR2 231926Z 26012G19KT 24/M00 A3002 RMK A01 T02371001  RH  021%=      5-min Rain = 0
KCR2 231927Z 29011KT 24/M00 A3003 RMK A01 T02381004  RH  020%=      5-min Rain = 0
KCR2 231928Z 28010KT 24/M01 A3002 RMK A01 T02391010  RH  019%=      5-min Rain = 0
KCR2 231929Z 25010KT 24/M01 A3003 RMK A01 T02371013  RH  019%=      5-min Rain = 0
KCR2 231930Z 25010KT 23/M02 A3003 RMK A01 T02341020  RH  018%=      5-min Rain = 0
KCR2 231931Z 25006KT 23/M02 A3003 RMK A01 T02301019  RH  019%=      5-min Rain = 0
KCR2 231932Z 27008KT 23/M02 A3003 RMK A01 T02281017  RH  020%=      5-min Rain = 0
KCR2 231933Z 28010KT 23/M01 A3003 RMK A01 T02291006  RH  021%=      5-min Rain = 0
KCR2 231934Z 28012KT 23/M01 A3003 RMK A01 T02321007  RH  021%=      5-min Rain = 0
KCR2 231935Z 26012KT 23/M02 A3003 RMK A01 T02321015  RH  019%=      5-min Rain = 0
KCR2 231936Z 27010KT 23/M01 A3003 RMK A01 T02321011  RH  020%=      5-min Rain = 0
KCR2 231937Z 26010KT 23/M01 A3003 RMK A01 T02341005  RH  021%=      5-min Rain = 0
KCR2 231938Z 26010KT 24/M01 A3002 RMK A01 T02371010  RH  019%=      5-min Rain = 0
KCR2 231939Z 24010KT 24/M01 A3002 RMK A01 T02351011  RH  019%=      5-min Rain = 0
KCR2 231940Z 24011KT 23/M01 A3002 RMK A01 T02341006  RH  020%=      5-min Rain = 0
KCR2 231941Z 24013KT 24/00 A3002 RMK A01 T02360004  RH  022%=      5-min Rain = 0
KCR2 231942Z 24014KT 24/M01 A3002 RMK A01 T02381007  RH  020%=      5-min Rain = 0
KCR2 231943Z 25012KT 23/M01 A3002 RMK A01 T02341006  RH  020%=      5-min Rain = 0
KCR2 231944Z 25010KT 23/M01 A3002 RMK A01 T02331007  RH  020%=      5-min Rain = 0
KCR2 231945Z 28012KT 23/00 A3002 RMK A01 T023300-0  RH  021%=      5-min Rain = 0
KCR2 231946Z 29010KT 23/00 A3002 RMK A01 T02340001  RH  021%=      5-min Rain = 0
KCR2 231947Z 29009KT 23/M00 A3002 RMK A01 T02321001  RH  021%=      5-min Rain = 0
KCR2 231948Z 30008KT 23/00 A3002 RMK A01 T02310000  RH  022%=      5-min Rain = 0
KCR2 231949Z 29010KT 23/00 A3002 RMK A01 T022900-0  RH  022%=      5-min Rain = 0
KCR2 231950Z 30010KT 23/01 A3002 RMK A01 T02290008  RH  023%=      5-min Rain = 0
KCR2 231951Z 31009KT 23/00 A3002 RMK A01 T02290003  RH  022%=      5-min Rain = 0
KCR2 231952Z 31008KT 23/01 A3002 RMK A01 T02290008  RH  023%=      5-min Rain = 0
KCR2 231953Z 29008KT 23/01 A3002 RMK A01 T02300005  RH  023%=      5-min Rain = 0
KCR2 231954Z 29007KT 23/01 A3002 RMK A01 T02310011  RH  023%=      5-min Rain = 0
KCR2 231955Z 27009KT 23/01 A3002 RMK A01 T02340012  RH  023%=      5-min Rain = 0
KCR2 231956Z 27010KT 24/00 A3002 RMK A01 T023700-0  RH  021%=      5-min Rain = 0
KCR2 231957Z 27010KT 24/M00 A3002 RMK A01 T02381002  RH  021%=      5-min Rain = 0
KCR2 231958Z 27009KT 24/M00 A3002 RMK A01 T02361004  RH  020%=      5-min Rain = 0
KCR2 231959Z 24012KT 24/00 A3002 RMK A01 T02350000  RH  021%=      5-min Rain = 0
KCR2 232000Z 23012KT 24/00 A3002 RMK A01 T023500-0  RH  021%=      5-min Rain = 0
KCR2 232001Z 24012KT 23/00 A3002 RMK A01 T023300-0  RH  021%=      5-min Rain = 0
KCR2 232002Z 26010G17KT 23/M00 A3002 RMK A01 T02341002  RH  021%=      5-min Rain = 0
KCR2 232003Z 26015KT 24/M00 A3002 RMK A01 T02361003  RH  021%=      5-min Rain = 0
KCR2 232004Z 27012KT 24/M01 A3002 RMK A01 T02361010  RH  020%=      5-min Rain = 0
KCR2 232005Z 27014KT 24/M01 A3002 RMK A01 T02361011  RH  019%=      5-min Rain = 0
KCR2 232006Z 25011KT 24/M01 A3002 RMK A01 T02361007  RH  020%=      5-min Rain = 0
KCR2 232007Z 25011KT 24/M01 A3002 RMK A01 T02371008  RH  020%=      5-min Rain = 0
KCR2 232008Z 24010KT 24/M00 A3002 RMK A01 T02361004  RH  020%=      5-min Rain = 0
KCR2 232009Z 28008KT 24/00 A3002 RMK A01 T02380001  RH  021%=      5-min Rain = 0
KCR2 232010Z 28009KT 24/00 A3001 RMK A01 T02400000  RH  020%=      5-min Rain = 0
KCR2 232011Z 29013KT 24/M00 A3002 RMK A01 T02411004  RH  020%=      5-min Rain = 0
KCR2 232012Z 30014KT 24/M01 A3001 RMK A01 T02411007  RH  019%=      5-min Rain = 0
KCR2 232013Z 30012KT 24/M00 A3001 RMK A01 T02421003  RH  020%=      5-min Rain = 0
KCR2 232014Z 29013KT 24/M00 A3001 RMK A01 T02441002  RH  020%=      5-min Rain = 0
KCR2 232015Z 30014KT 24/M01 A3001 RMK A01 T02441007  RH  019%=      5-min Rain = 0
KCR2 232016Z 27012KT 24/00 A3001 RMK A01 T024400-0  RH  020%=      5-min Rain = 0
KCR2 232017Z 25010KT 24/00 A3001 RMK A01 T02440002  RH  020%=      5-min Rain = 0
KCR2 232018Z 28011G17KT 24/00 A3001 RMK A01 T02440003  RH  020%=      5-min Rain = 0
KCR2 232019Z 29014KT 24/M00 A3001 RMK A01 T02441002  RH  020%=      5-min Rain = 0
KCR2 232020Z 28011KT 24/M01 A3001 RMK A01 T02411011  RH  019%=      5-min Rain = 0
KCR2 232021Z 29012KT 24/M01 A3001 RMK A01 T02391010  RH  019%=      5-min Rain = 0
KCR2 232022Z 29012KT 24/M01 A3001 RMK A01 T02391008  RH  019%=      5-min Rain = 0
KCR2 232023Z 30012KT 24/M00 A3001 RMK A01 T02421002  RH  020%=      5-min Rain = 0
KCR2 232024Z 30014KT 24/00 A3001 RMK A01 T02440001  RH  020%=      5-min Rain = 0
KCR2 232025Z 28011KT 25/00 A3001 RMK A01 T02470003  RH  020%=      5-min Rain = 0
KCR2 232026Z 27010KT 25/01 A3001 RMK A01 T02490008  RH  021%=      5-min Rain = 0
KCR2 232027Z 28010KT 25/M00 A3001 RMK A01 T02471004  RH  019%=      5-min Rain = 0
KCR2 232028Z 29010KT 24/00 A3001 RMK A01 T024300-0  RH  020%=      5-min Rain = 0
KCR2 232029Z 30012KT 24/M00 A3001 RMK A01 T02421004  RH  020%=      5-min Rain = 0
KCR2 232030Z 30009KT 24/M00 A3001 RMK A01 T02411002  RH  020%=      5-min Rain = 0
KCR2 232031Z 29010KT 24/M00 A3001 RMK A01 T02401002  RH  020%=      5-min Rain = 0
KCR2 232032Z 28009KT 24/00 A3001 RMK A01 T02400001  RH  021%=      5-min Rain = 0
KCR2 232033Z 28008KT 24/00 A3001 RMK A01 T02410002  RH  021%=      5-min Rain = 0
KCR2 232034Z 29009KT 24/01 A3001 RMK A01 T02410009  RH  022%=      5-min Rain = 0
KCR2 232035Z 29009KT 24/01 A3001 RMK A01 T02420010  RH  022%=      5-min Rain = 0
KCR2 232036Z 30009KT 24/01 A3001 RMK A01 T02420005  RH  021%=      5-min Rain = 0
KCR2 232037Z 31008KT 24/01 A3001 RMK A01 T02410007  RH  022%=      5-min Rain = 0
KCR2 232038Z 29009KT 24/01 A3001 RMK A01 T02410006  RH  021%=      5-min Rain = 0
KCR2 232039Z 28013G18KT 24/00 A3001 RMK A01 T02420001  RH  020%=      5-min Rain = 0
KCR2 232040Z 28016KT 24/M01 A3001 RMK A01 T02411007  RH  019%=      5-min Rain = 0
KCR2 232041Z 28015KT 24/M01 A3001 RMK A01 T02401009  RH  019%=      5-min Rain = 0
KCR2 232042Z 28016KT 24/M01 A3001 RMK A01 T02391008  RH  020%=      5-min Rain = 0
KCR2 232043Z 28014KT 24/M01 A3001 RMK A01 T02391014  RH  019%=      5-min Rain = 0
KCR2 232044Z 28012KT 24/M01 A3001 RMK A01 T02381011  RH  019%=      5-min Rain = 0
KCR2 232045Z 27012KT 24/M01 A3001 RMK A01 T02411010  RH  019%=      5-min Rain = 0
KCR2 232046Z 28011KT 24/M01 A3001 RMK A01 T02411011  RH  019%=      5-min Rain = 0
KCR2 232047Z 29012KT 24/M01 A3001 RMK A01 T02411007  RH  019%=      5-min Rain = 0
KCR2 232048Z 29010KT 24/M01 A3001 RMK A01 T02431007  RH  019%=      5-min Rain = 0
KCR2 232049Z 28010KT 24/M01 A30 RMK A01 T02431008  RH  019%=      5-min Rain = 0
KCR2 232050Z 28010KT 24/M01 A30 RMK A01 T02431013  RH  018%=      5-min Rain = 0
KCR2 232051Z 28010KT 24/M02 A30 RMK A01 T02421016  RH  018%=      5-min Rain = 0
KCR2 232052Z 30007KT 24/M02 A30 RMK A01 T02421023  RH  017%=      5-min Rain = 0
KCR2 232053Z 28007KT 24/M02 A30 RMK A01 T02411016  RH  018%=      5-min Rain = 0
KCR2 232054Z 28007KT 24/M02 A30 RMK A01 T02421018  RH  018%=      5-min Rain = 0
KCR2 232055Z 29008KT 24/M00 A30 RMK A01 T02441004  RH  019%=      5-min Rain = 0
KCR2 232056Z 30013KT 25/M01 A30 RMK A01 T02491010  RH  018%=      5-min Rain = 0
KCR2 232057Z 31011KT 25/M02 A30 RMK A01 T02491020  RH  017%=      5-min Rain = 0
KCR2 232058Z 32010KT 25/M01 A30 RMK A01 T02481013  RH  018%=      5-min Rain = 0
KCR2 232059Z 31008KT 25/M02 A30 RMK A01 T02481022  RH  017%=      5-min Rain = 0
KCR2 232100Z 29008KT 25/M03 A30 RMK A01 T02451027  RH  016%=      5-min Rain = 0
KCR2 232101Z 29011G17KT 24/M01 A30 RMK A01 T02441012  RH  018%=      5-min Rain = 0
KCR2 232102Z 31011KT 25/M02 A30 RMK A01 T02471017  RH  017%=      5-min Rain = 0
KCR2 232103Z 30010KT 25/M01 A30 RMK A01 T02491014  RH  018%=      5-min Rain = 0
KCR2 232104Z 30010KT 25/M02 A30 RMK A01 T02501017  RH  017%=      5-min Rain = 0
KCR2 232105Z 28010KT 25/M02 A30 RMK A01 T02491021  RH  017%=      5-min Rain = 0
KCR2 232106Z 26014KT 25/M03 A30 RMK A01 T02481025  RH  016%=      5-min Rain = 0
KCR2 232107Z 26014KT 25/M04 A30 RMK A01 T02481035  RH  015%=      5-min Rain = 0
KCR2 232108Z 28013KT 25/M03 A30 RMK A01 T02451034  RH  015%=      5-min Rain = 0
KCR2 232109Z 29009KT 25/M02 A30 RMK A01 T02471022  RH  017%=      5-min Rain = 0
KCR2 232110Z 28008KT 25/M02 A30 RMK A01 T02521022  RH  016%=      5-min Rain = 0
KCR2 232111Z 27008KT 25/M02 A30 RMK A01 T02521024  RH  016%=      5-min Rain = 0
KCR2 232112Z 27008KT 25/M02 A30 RMK A01 T02521021  RH  016%=      5-min Rain = 0
KCR2 232113Z 29012KT 25/M03 A30 RMK A01 T02531025  RH  016%=      5-min Rain = 0
KCR2 232114Z 27013KT 25/M04 A30 RMK A01 T02541035  RH  015%=      5-min Rain = 0
KCR2 232115Z 28012KT 25/M04 A30 RMK A01 T02511038  RH  014%=      5-min Rain = 0
KCR2 232116Z 28011KT 25/M04 A30 RMK A01 T02501041  RH  014%=      5-min Rain = 0
KCR2 232117Z 28009KT 25/M04 A2999 RMK A01 T02481037  RH  015%=      5-min Rain = 0
KCR2 232118Z 29011KT 25/M03 A2999 RMK A01 T02481031  RH  015%=      5-min Rain = 0
KCR2 232119Z 31013KT 25/M03 A2999 RMK A01 T02511032  RH  015%=      5-min Rain = 0
KCR2 232120Z 30015KT 25/M03 A2999 RMK A01 T02511031  RH  015%=      5-min Rain = 0
KCR2 232121Z 31016KT 25/M03 A2999 RMK A01 T02511034  RH  015%=      5-min Rain = 0
KCR2 232122Z 30011KT 25/M04 A2999 RMK A01 T02481042  RH  014%=      5-min Rain = 0
KCR2 232123Z 28008KT 25/M03 A2999 RMK A01 T02471032  RH  016%=      5-min Rain = 0
KCR2 232124Z 28009KT 25/M03 A2999 RMK A01 T02471034  RH  015%=      5-min Rain = 0
KCR2 232125Z 27011KT 25/M04 A2999 RMK A01 T02481040  RH  015%=      5-min Rain = 0
KCR2 232126Z 26012KT 25/M05 A2999 RMK A01 T02491045  RH  014%=      5-min Rain = 0
KCR2 232127Z 26010KT 25/M05 A2999 RMK A01 T02491048  RH  014%=      5-min Rain = 0
KCR2 232128Z 29016KT 25/M04 A2999 RMK A01 T02511037  RH  015%=      5-min Rain = 0
KCR2 232129Z 30013KT 25/M04 A2999 RMK A01 T02511043  RH  014%=      5-min Rain = 0
KCR2 232130Z 30013KT 25/M04 A2999 RMK A01 T02511043  RH  014%=      5-min Rain = 0
KCR2 232131Z 30011KT 25/M04 A2999 RMK A01 T02501041  RH  014%=      5-min Rain = 0
KCR2 232132Z 31007KT 25/M04 A2999 RMK A01 T02521037  RH  015%=      5-min Rain = 0
KCR2 232133Z 29007KT 25/M04 A2999 RMK A01 T02531042  RH  014%=      5-min Rain = 0
KCR2 232134Z 28006KT 25/M04 A2999 RMK A01 T02531042  RH  014%=      5-min Rain = 0
KCR2 232135Z 30007G13KT 25/M03 A2999 RMK A01 T02531032  RH  015%=      5-min Rain = 0
KCR2 232136Z 30013KT 26/M03 A2999 RMK A01 T02561034  RH  015%=      5-min Rain = 0
KCR2 232137Z 29011KT 26/M04 A2999 RMK A01 T02551036  RH  014%=      5-min Rain = 0
KCR2 232138Z 31013KT 25/M04 A2999 RMK A01 T02521038  RH  014%=      5-min Rain = 0
KCR2 232139Z 30012KT 25/M04 A2999 RMK A01 T02491036  RH  015%=      5-min Rain = 0
KCR2 232140Z 30009KT 25/M04 A2999 RMK A01 T02471040  RH  015%=      5-min Rain = 0
KCR2 232141Z 29006KT 25/M04 A2999 RMK A01 T02451039  RH  015%=      5-min Rain = 0
KCR2 232142Z 28005KT 24/M04 A2999 RMK A01 T02441039  RH  015%=      5-min Rain = 0
KCR2 232143Z 28007KT 25/M04 A2999 RMK A01 T02461038  RH  015%=      5-min Rain = 0
KCR2 232144Z 27010KT 25/M04 A2999 RMK A01 T02481037  RH  015%=      5-min Rain = 0
KCR2 232145Z 28010KT 25/M04 A2999 RMK A01 T02501038  RH  015%=      5-min Rain = 0
KCR2 232146Z 29013G19KT 25/M03 A2999 RMK A01 T02511033  RH  015%=      5-min Rain = 0
KCR2 232147Z 27015KT 25/M04 A2999 RMK A01 T02531037  RH  014%=      5-min Rain = 0
KCR2 232148Z 28012KT 25/M04 A2999 RMK A01 T02521042  RH  014%=      5-min Rain = 0
KCR2 232149Z 30010KT 25/M04 A2999 RMK A01 T02501040  RH  014%=      5-min Rain = 0
KCR2 232150Z 28008KT 25/M03 A2999 RMK A01 T02501028  RH  016%=      5-min Rain = 0
KCR2 232151Z 26012G17KT 25/M04 A2999 RMK A01 T02521036  RH  015%=      5-min Rain = 0
KCR2 232152Z 25012KT 25/M04 A2999 RMK A01 T02511042  RH  014%=      5-min Rain = 0
KCR2 232153Z 27012KT 25/M04 A2999 RMK A01 T02481039  RH  015%=      5-min Rain = 0
KCR2 232154Z 28009KT 25/M04 A2999 RMK A01 T02481039  RH  015%=      5-min Rain = 0
KCR2 232155Z 28009KT 25/M04 A2999 RMK A01 T02471040  RH  015%=      5-min Rain = 0
KCR2 232156Z 29008KT 25/M04 A2999 RMK A01 T02471044  RH  014%=      5-min Rain = 0
KCR2 232157Z 30011KT 25/M04 A2999 RMK A01 T02461039  RH  015%=      5-min Rain = 0
KCR2 232158Z 30013KT 25/M03 A2999 RMK A01 T02481033  RH  015%=      5-min Rain = 0
KCR2 232159Z 28012KT 25/M03 A2999 RMK A01 T02511034  RH  015%=      5-min Rain = 0
KCR2 232200Z 28011KT 25/M04 A2999 RMK A01 T02501041  RH  014%=      5-min Rain = 0
KCR2 232201Z 27009KT 25/M04 A2999 RMK A01 T02491041  RH  014%=      5-min Rain = 0
KCR2 232202Z 26012KT 25/M04 A2999 RMK A01 T02481038  RH  015%=      5-min Rain = 0
KCR2 232203Z 27009KT 25/M05 A2999 RMK A01 T02481045  RH  014%=      5-min Rain = 0
KCR2 232204Z 28010KT 25/M04 A2999 RMK A01 T02471040  RH  015%=      5-min Rain = 0
KCR2 232205Z 28009KT 25/M04 A2999 RMK A01 T02461037  RH  015%=      5-min Rain = 0
KCR2 232206Z 27007KT 25/M04 A2998 RMK A01 T02461036  RH  015%=      5-min Rain = 0
KCR2 232207Z 27007KT 25/M03 A2998 RMK A01 T02471033  RH  015%=      5-min Rain = 0
KCR2 232208Z 28006KT 25/M04 A2998 RMK A01 T02471039  RH  015%=      5-min Rain = 0
KCR2 232209Z 29005KT 25/M04 A2998 RMK A01 T02471036  RH  015%=      5-min Rain = 0
KCR2 232210Z 28006KT 25/M04 A2998 RMK A01 T02461040  RH  015%=      5-min Rain = 0
KCR2 232211Z 27009G14KT 25/M03 A2998 RMK A01 T02461031  RH  016%=      5-min Rain = 0
KCR2 232212Z 27012KT 25/M04 A2998 RMK A01 T02471035  RH  015%=      5-min Rain = 0
KCR2 232213Z 27012KT 25/M04 A2998 RMK A01 T02471040  RH  015%=      5-min Rain = 0
KCR2 232214Z 27014KT 25/M04 A2998 RMK A01 T02461042  RH  015%=      5-min Rain = 0
KCR2 232215Z 27013KT 25/M04 A2998 RMK A01 T02451040  RH  015%=      5-min Rain = 0
KCR2 232216Z 27010KT 25/M04 A2998 RMK A01 T02451043  RH  014%=      5-min Rain = 0
KCR2 232217Z 27010KT 25/M04 A2998 RMK A01 T02451041  RH  015%=      5-min Rain = 0
KCR2 232218Z 27012KT 24/M04 A2998 RMK A01 T02441041  RH  015%=      5-min Rain = 0
KCR2 232219Z 27010KT 24/M04 A2998 RMK A01 T02441044  RH  014%=      5-min Rain = 0
KCR2 232220Z 27010KT 24/M04 A2998 RMK A01 T02441043  RH  015%=      5-min Rain = 0
KCR2 232221Z 26010KT 24/M04 A2998 RMK A01 T02441042  RH  015%=      5-min Rain = 0
KCR2 232222Z 27010KT 25/M04 A2998 RMK A01 T02451040  RH  015%=      5-min Rain = 0
KCR2 232223Z 26009KT 25/M04 A2998 RMK A01 T02451043  RH  014%=      5-min Rain = 0
KCR2 232224Z 27007KT 25/M03 A2998 RMK A01 T02461031  RH  016%=      5-min Rain = 0
KCR2 232225Z 29009KT 25/M03 A2998 RMK A01 T02491032  RH  015%=      5-min Rain = 0
KCR2 232226Z 28010KT 25/M03 A2998 RMK A01 T02501033  RH  015%=      5-min Rain = 0
KCR2 232227Z 28010KT 25/M04 A2998 RMK A01 T02511042  RH  014%=      5-min Rain = 0
KCR2 232228Z 28007KT 25/M04 A2998 RMK A01 T02491044  RH  014%=      5-min Rain = 0
KCR2 232229Z 29006KT 25/M04 A2998 RMK A01 T02491038  RH  015%=      5-min Rain = 0
KCR2 232230Z 28010KT 25/M03 A2998 RMK A01 T02501029  RH  016%=      5-min Rain = 0
KCR2 232231Z 29010KT 25/M03 A2998 RMK A01 T02531032  RH  015%=      5-min Rain = 0
KCR2 232232Z 28006KT 25/M04 A2998 RMK A01 T02521038  RH  014%=      5-min Rain = 0
KCR2 232233Z 28006KT 25/M04 A2997 RMK A01 T02501037  RH  015%=      5-min Rain = 0
KCR2 232234Z 29010KT 25/M03 A2998 RMK A01 T02501034  RH  015%=      5-min Rain = 0
KCR2 232235Z 29011KT 25/M04 A2998 RMK A01 T02501037  RH  015%=      5-min Rain = 0
KCR2 232236Z 28011KT 25/M04 A2997 RMK A01 T02491038  RH  015%=      5-min Rain = 0
KCR2 232237Z 27010KT 25/M04 A2997 RMK A01 T02481037  RH  015%=      5-min Rain = 0
KCR2 232238Z 27008KT 25/M03 A2997 RMK A01 T02481034  RH  015%=      5-min Rain = 0
KCR2 232239Z 27011KT 25/M04 A2997 RMK A01 T02491037  RH  015%=      5-min Rain = 0
KCR2 232240Z 27011KT 25/M04 A2997 RMK A01 T02481040  RH  015%=      5-min Rain = 0
KCR2 232241Z 27010KT 25/M04 A2997 RMK A01 T02481041  RH  014%=      5-min Rain = 0
KCR2 232242Z 28010KT 25/M04 A2997 RMK A01 T02471040  RH  015%=      5-min Rain = 0
KCR2 232243Z 26010KT 25/M04 A2997 RMK A01 T02481040  RH  015%=      5-min Rain = 0
KCR2 232244Z 26007KT 25/M05 A2997 RMK A01 T02481047  RH  014%=      5-min Rain = 0
KCR2 232245Z 27008KT 25/M04 A2997 RMK A01 T02481039  RH  015%=      5-min Rain = 0
KCR2 232246Z 27008KT 25/M04 A2997 RMK A01 T02491037  RH  015%=      5-min Rain = 0
KCR2 232247Z 28009KT 25/M04 A2997 RMK A01 T02491038  RH  015%=      5-min Rain = 0
KCR2 232248Z 29007KT 25/M03 A2997 RMK A01 T02511026  RH  016%=      5-min Rain = 0
KCR2 232249Z 29009KT 25/M04 A2997 RMK A01 T02521035  RH  015%=      5-min Rain = 0
KCR2 232250Z 29007KT 25/M04 A2997 RMK A01 T02501037  RH  015%=      5-min Rain = 0
KCR2 232251Z 27008KT 25/M03 A2997 RMK A01 T02491026  RH  016%=      5-min Rain = 0
KCR2 232252Z 27007KT 25/M04 A2997 RMK A01 T02491036  RH  015%=      5-min Rain = 0
KCR2 232253Z 29006KT 25/M03 A2997 RMK A01 T02491034  RH  015%=      5-min Rain = 0
KCR2 232254Z 28006KT 25/M03 A2997 RMK A01 T02491034  RH  015%=      5-min Rain = 0
KCR2 232255Z 26007KT 25/M04 A2997 RMK A01 T02481035  RH  015%=      5-min Rain = 0
KCR2 232256Z 28006KT 25/M04 A2997 RMK A01 T02471035  RH  015%=      5-min Rain = 0
KCR2 232257Z 27008KT 25/M03 A2997 RMK A01 T02461034  RH  015%=      5-min Rain = 0
KCR2 232258Z 28008KT 25/M04 A2997 RMK A01 T02451042  RH  015%=      5-min Rain = 0
KCR2 232259Z 28009KT 25/M04 A2997 RMK A01 T02451038  RH  015%=      5-min Rain = 0
KCR2 232300Z 28008KT 24/M04 A2997 RMK A01 T02441040  RH  015%=      5-min Rain = 0
KCR2 232301Z 29007KT 24/M04 A2997 RMK A01 T02441038  RH  015%=      5-min Rain = 0
KCR2 232302Z 27005KT 24/M03 A2997 RMK A01 T02431032  RH  016%=      5-min Rain = 0
KCR2 232303Z 26005KT 24/M03 A2997 RMK A01 T02441030  RH  016%=      5-min Rain = 0
KCR2 232304Z 27004KT 25/M03 A2997 RMK A01 T02451030  RH  016%=      5-min Rain = 0
KCR2 232305Z 29005KT 25/M03 A2997 RMK A01 T02461030  RH  016%=      5-min Rain = 0
KCR2 232306Z 27004KT 25/M04 A2997 RMK A01 T02471037  RH  015%=      5-min Rain = 0
KCR2 232307Z 26004KT 25/M03 A2997 RMK A01 T02471031  RH  016%=      5-min Rain = 0
KCR2 232308Z 27006KT 25/M03 A2997 RMK A01 T02481028  RH  016%=      5-min Rain = 0
KCR2 232309Z 27006KT 25/M04 A2997 RMK A01 T02491040  RH  014%=      5-min Rain = 0
KCR2 232310Z 26010KT 25/M04 A2997 RMK A01 T02501038  RH  015%=      5-min Rain = 0
KCR2 232311Z 24009KT 25/M04 A2997 RMK A01 T02501043  RH  014%=      5-min Rain = 0
KCR2 232312Z 25008KT 25/M04 A2996 RMK A01 T02491043  RH  014%=      5-min Rain = 0
KCR2 232313Z 23007KT 25/M04 A2996 RMK A01 T02501038  RH  015%=      5-min Rain = 0
KCR2 232314Z 23008KT 25/M03 A2996 RMK A01 T02501032  RH  015%=      5-min Rain = 0
KCR2 232315Z 23008KT 25/M03 A2996 RMK A01 T02511026  RH  016%=      5-min Rain = 0
KCR2 232316Z 24007KT 25/M03 A2996 RMK A01 T02511031  RH  015%=      5-min Rain = 0
KCR2 232317Z 25008KT 25/M03 A2996 RMK A01 T02521030  RH  015%=      5-min Rain = 0
KCR2 232318Z 24008KT 25/M03 A2996 RMK A01 T02511028  RH  016%=      5-min Rain = 0
KCR2 232319Z 24009KT 25/M03 A2997 RMK A01 T02501033  RH  015%=      5-min Rain = 0
KCR2 232320Z 24007KT 25/M04 A2996 RMK A01 T02491041  RH  014%=      5-min Rain = 0
KCR2 232321Z 27006KT 25/M04 A2997 RMK A01 T02481035  RH  015%=      5-min Rain = 0
KCR2 232322Z 28007KT 25/M04 A2997 RMK A01 T02471036  RH  015%=      5-min Rain = 0
KCR2 232323Z 27007KT 25/M04 A2997 RMK A01 T02461037  RH  015%=      5-min Rain = 0
KCR2 232324Z 27008KT 25/M04 A2996 RMK A01 T02451040  RH  015%=      5-min Rain = 0
KCR2 232325Z 27006KT 25/M05 A2996 RMK A01 T02451046  RH  014%=      5-min Rain = 0
KCR2 232326Z 26006KT 25/M04 A2996 RMK A01 T02451041  RH  015%=      5-min Rain = 0
KCR2 232327Z 25006KT 25/M03 A2996 RMK A01 T02451033  RH  016%=      5-min Rain = 0
KCR2 232328Z 25008KT 25/M04 A2996 RMK A01 T02451039  RH  015%=      5-min Rain = 0
KCR2 232329Z 25006KT 25/M04 A2996 RMK A01 T02451039  RH  015%=      5-min Rain = 0
KCR2 232330Z 24007KT 25/M04 A2996 RMK A01 T02451041  RH  015%=      5-min Rain = 0
KCR2 232331Z 26006KT 24/M05 A2996 RMK A01 T02441046  RH  014%=      5-min Rain = 0
KCR2 232332Z 27008KT 24/M04 A2996 RMK A01 T02441036  RH  015%=      5-min Rain = 0
KCR2 232333Z 26007KT 24/M04 A2996 RMK A01 T02441036  RH  015%=      5-min Rain = 0
KCR2 232334Z 26007KT 24/M04 A2997 RMK A01 T02441038  RH  015%=      5-min Rain = 0
KCR2 232335Z 27006KT 25/M04 A2996 RMK A01 T02451036  RH  015%=      5-min Rain = 0
KCR2 232336Z 27005KT 25/M04 A2996 RMK A01 T02451038  RH  015%=      5-min Rain = 0
KCR2 232337Z 27004KT 25/M04 A2996 RMK A01 T02461036  RH  015%=      5-min Rain = 0
KCR2 232338Z 25006KT 25/M03 A2996 RMK A01 T02461031  RH  016%=      5-min Rain = 0
KCR2 232339Z 26007KT 25/M03 A2996 RMK A01 T02451030  RH  016%=      5-min Rain = 0
KCR2 232340Z 26008KT 25/M04 A2996 RMK A01 T02451039  RH  015%=      5-min Rain = 0
KCR2 232341Z 25006KT 25/M03 A2996 RMK A01 T02451033  RH  016%=      5-min Rain = 0
KCR2 232342Z 25006KT 25/M04 A2996 RMK A01 T02451036  RH  015%=      5-min Rain = 0
KCR2 232343Z 25006KT 25/M03 A2996 RMK A01 T02451028  RH  016%=      5-min Rain = 0
KCR2 232344Z 27005KT 25/M03 A2996 RMK A01 T02461031  RH  016%=      5-min Rain = 0
KCR2 232345Z 27005KT 25/M03 A2996 RMK A01 T02461032  RH  016%=      5-min Rain = 0
KCR2 232346Z 26005KT 25/M04 A2996 RMK A01 T02461035  RH  015%=      5-min Rain = 0
KCR2 232347Z 25005KT 25/M04 A2996 RMK A01 T02471035  RH  015%=      5-min Rain = 0
KCR2 232348Z 25006KT 25/M04 A2996 RMK A01 T02471038  RH  015%=      5-min Rain = 0
KCR2 232349Z 25006KT 25/M03 A2996 RMK A01 T02461033  RH  015%=      5-min Rain = 0
KCR2 232350Z 26005KT 25/M03 A2996 RMK A01 T02461032  RH  016%=      5-min Rain = 0
KCR2 232351Z 25005KT 25/M03 A2996 RMK A01 T02461033  RH  016%=      5-min Rain = 0
KCR2 232352Z 27004KT 25/M03 A2996 RMK A01 T02461033  RH  016%=      5-min Rain = 0
KCR2 232353Z 25004KT 25/M03 A2996 RMK A01 T02451033  RH  016%=      5-min Rain = 0
KCR2 232354Z 24004KT 25/M02 A2996 RMK A01 T02461020  RH  017%=      5-min Rain = 0
KCR2 232355Z 25004KT 25/M02 A2996 RMK A01 T02451021  RH  017%=      5-min Rain = 0
KCR2 232356Z 24004KT 25/M02 A2996 RMK A01 T02451020  RH  017%=      5-min Rain = 0
KCR2 232357Z 24004KT 24/M01 A2996 RMK A01 T02441013  RH  018%=      5-min Rain = 0
KCR2 232358Z 24005KT 24/M01 A2996 RMK A01 T02431008  RH  019%=      5-min Rain = 0
KCR2 232359Z 24006KT 24/M01 A2996 RMK A01 T02421011  RH  019%=      5-min Rain = 0
KCR2 240000Z 24005KT 24/M02 A2996 RMK A01 T02421023  RH  017%=      5-min Rain = 0
KCR2 240001Z 24005KT 24/M03 A2996 RMK A01 T02421030  RH  016%=      5-min Rain = 0
KCR2 240002Z 23005KT 24/M02 A2996 RMK A01 T02431020  RH  017%=      5-min Rain = 0
KCR2 240003Z 24005KT 24/M02 A2996 RMK A01 T02421016  RH  018%=      5-min Rain = 0
KCR2 240004Z 24004KT 24/M02 A2996 RMK A01 T02421017  RH  018%=      5-min Rain = 0
KCR2 240005Z 25004KT 24/M02 A2996 RMK A01 T02411021  RH  018%=      5-min Rain = 0
KCR2 240006Z 25004KT 24/M02 A2996 RMK A01 T02401022  RH  017%=      5-min Rain = 0
KCR2 240007Z 25004KT 24/M02 A2996 RMK A01 T02391019  RH  018%=      5-min Rain = 0
KCR2 240008Z 25004KT 24/M02 A2996 RMK A01 T02391018  RH  018%=      5-min Rain = 0
KCR2 240009Z 25003KT 24/M02 A2996 RMK A01 T02381020  RH  018%=      5-min Rain = 0
KCR2 240010Z 25004KT 24/M02 A2996 RMK A01 T02371024  RH  017%=      5-min Rain = 0
KCR2 240011Z 26003KT 24/M03 A2996 RMK A01 T02371032  RH  016%=      5-min Rain = 0
KCR2 240012Z 25003KT 24/M02 A2996 RMK A01 T02371022  RH  018%=      5-min Rain = 0
KCR2 240013Z 25003KT 24/M02 A2996 RMK A01 T02371020  RH  018%=      5-min Rain = 0
KCR2 240014Z 25003KT 24/M02 A2996 RMK A01 T02361017  RH  019%=      5-min Rain = 0
KCR2 240015Z 26003KT 23/M02 A2996 RMK A01 T02341016  RH  019%=      5-min Rain = 0
KCR2 240016Z 25004KT 23/M02 A2996 RMK A01 T02341016  RH  019%=      5-min Rain = 0
KCR2 240017Z 26004KT 23/M01 A2996 RMK A01 T02331010  RH  020%=      5-min Rain = 0
KCR2 240018Z 26003KT 23/M02 A2996 RMK A01 T02321020  RH  019%=      5-min Rain = 0
KCR2 240019Z 26003KT 23/M02 A2996 RMK A01 T02331016  RH  019%=      5-min Rain = 0
KCR2 240020Z 26003KT 23/M00 A2996 RMK A01 T02331004  RH  021%=      5-min Rain = 0
KCR2 240021Z 26003KT 23/00 A2996 RMK A01 T02330001  RH  022%=      5-min Rain = 0
KCR2 240022Z 25003KT 23/M01 A2996 RMK A01 T02331010  RH  020%=      5-min Rain = 0
KCR2 240023Z 25003KT 23/M01 A2996 RMK A01 T02341008  RH  020%=      5-min Rain = 0
KCR2 240024Z 26003KT 24/00 A2996 RMK A01 T02350001  RH  021%=      5-min Rain = 0
KCR2 240025Z 25004KT 24/M00 A2996 RMK A01 T02361004  RH  021%=      5-min Rain = 0
KCR2 240026Z 26003KT 24/M00 A2996 RMK A01 T02361004  RH  020%=      5-min Rain = 0
KCR2 240027Z 26003KT 24/M01 A2996 RMK A01 T02361008  RH  020%=      5-min Rain = 0
KCR2 240028Z 26004KT 24/M01 A2996 RMK A01 T02361008  RH  020%=      5-min Rain = 0
KCR2 240029Z 26003KT 24/M02 A2996 RMK A01 T02361015  RH  019%=      5-min Rain = 0
KCR2 240030Z 26003KT 24/M01 A2996 RMK A01 T02361014  RH  019%=      5-min Rain = 0
KCR2 240031Z 26004KT 24/M01 A2996 RMK A01 T02361009  RH  020%=      5-min Rain = 0
KCR2 240032Z 26003KT 24/M01 A2996 RMK A01 T02371006  RH  020%=      5-min Rain = 0
KCR2 240033Z 26004KT 24/M01 A2996 RMK A01 T02361009  RH  020%=      5-min Rain = 0
KCR2 240034Z 26004KT 24/M01 A2996 RMK A01 T02371007  RH  020%=      5-min Rain = 0
KCR2 240035Z 27004KT 24/M01 A2996 RMK A01 T02361006  RH  020%=      5-min Rain = 0
KCR2 240036Z 26004KT 24/M01 A2996 RMK A01 T02371006  RH  020%=      5-min Rain = 0
KCR2 240037Z 27004KT 24/M01 A2996 RMK A01 T02361005  RH  020%=      5-min Rain = 0
KCR2 240038Z 27004KT 24/M01 A2996 RMK A01 T02361007  RH  020%=      5-min Rain = 0
KCR2 240039Z 27004KT 24/M01 A2996 RMK A01 T02361006  RH  020%=      5-min Rain = 0
KCR2 240040Z 27004KT 24/M01 A2996 RMK A01 T02361005  RH  020%=      5-min Rain = 0
KCR2 240041Z 27004KT 24/M00 A2996 RMK A01 T02351002  RH  021%=      5-min Rain = 0
KCR2 240042Z 27004KT 23/M00 A2996 RMK A01 T02341003  RH  021%=      5-min Rain = 0
KCR2 240043Z 27004KT 23/M00 A2996 RMK A01 T02331002  RH  021%=      5-min Rain = 0
KCR2 240044Z 27004KT 23/M00 A2996 RMK A01 T02331003  RH  021%=      5-min Rain = 0
KCR2 240045Z 27004KT 23/M00 A2996 RMK A01 T02321002  RH  021%=      5-min Rain = 0
KCR2 240046Z 27004KT 23/M00 A2996 RMK A01 T02311001  RH  021%=      5-min Rain = 0
KCR2 240047Z 27004KT 23/00 A2996 RMK A01 T02300001  RH  022%=      5-min Rain = 0
KCR2 240048Z 27004KT 23/00 A2996 RMK A01 T02300001  RH  022%=      5-min Rain = 0
KCR2 240049Z 27004KT 23/00 A2996 RMK A01 T02290002  RH  022%=      5-min Rain = 0
KCR2 240050Z 27004KT 23/00 A2996 RMK A01 T02280004  RH  023%=      5-min Rain = 0
KCR2 240051Z 27004KT 23/00 A2996 RMK A01 T02270003  RH  023%=      5-min Rain = 0
KCR2 240052Z 28004KT 23/M00 A2996 RMK A01 T02261001  RH  022%=      5-min Rain = 0
KCR2 240053Z 28004KT 23/M00 A2996 RMK A01 T02261003  RH  022%=      5-min Rain = 0
KCR2 240054Z 28004KT 22/M01 A2996 RMK A01 T02241008  RH  021%=      5-min Rain = 0
KCR2 240055Z 28004KT 22/M01 A2995 RMK A01 T02231009  RH  021%=      5-min Rain = 0
KCR2 240056Z 28004KT 22/M01 A2995 RMK A01 T02231009  RH  021%=      5-min Rain = 0
KCR2 240057Z 28004KT 22/M01 A2995 RMK A01 T02221009  RH  021%=      5-min Rain = 0
KCR2 240058Z 28004KT 22/M01 A2995 RMK A01 T02221010  RH  021%=      5-min Rain = 0
KCR2 240059Z 28004KT 22/M01 A2995 RMK A01 T02211009  RH  022%=      5-min Rain = 0
KCR2 240100Z 28004KT 22/M01 A2995 RMK A01 T02201008  RH  022%=      5-min Rain = 0
KCR2 240101Z 28004KT 22/M01 A2995 RMK A01 T02191009  RH  022%=      5-min Rain = 0
KCR2 240102Z 29004KT 22/M01 A2995 RMK A01 T02191011  RH  021%=      5-min Rain = 0
KCR2 240103Z 29004KT 22/M01 A2996 RMK A01 T02181013  RH  021%=      5-min Rain = 0
KCR2 240104Z 29004KT 22/M01 A2996 RMK A01 T02181013  RH  021%=      5-min Rain = 0
KCR2 240105Z 28004KT 22/M01 A2996 RMK A01 T02171011  RH  022%=      5-min Rain = 0
KCR2 240106Z 28004KT 22/M01 A2996 RMK A01 T02161011  RH  022%=      5-min Rain = 0
KCR2 240107Z 28004KT 22/M01 A2995 RMK A01 T02151011  RH  022%=      5-min Rain = 0
KCR2 240108Z 28004KT 22/M01 A2995 RMK A01 T02151011  RH  022%=      5-min Rain = 0
KCR2 240109Z 28004KT 22/M01 A2995 RMK A01 T02151012  RH  022%=      5-min Rain = 0
KCR2 240110Z 28004KT 22/M01 A2995 RMK A01 T02151011  RH  022%=      5-min Rain = 0
KCR2 240111Z 27003KT 22/M01 A2995 RMK A01 T02151011  RH  022%=      5-min Rain = 0
KCR2 240112Z 27003KT 22/M01 A2995 RMK A01 T02151009  RH  022%=      5-min Rain = 0
KCR2 240113Z 27003KT 21/M01 A2995 RMK A01 T02141009  RH  022%=      5-min Rain = 0
KCR2 240114Z 27003KT 21/M01 A2995 RMK A01 T02141008  RH  023%=      5-min Rain = 0
KCR2 240115Z 26003KT 21/M00 A2995 RMK A01 T02131002  RH  024%=      5-min Rain = 0
KCR2 240116Z 26003KT 21/02 A2995 RMK A01 T02110015  RH  027%=      5-min Rain = 0
KCR2 240117Z 25002KT 21/01 A2995 RMK A01 T02080014  RH  027%=      5-min Rain = 0
KCR2 240118Z 23001KT 21/01 A2995 RMK A01 T02060009  RH  027%=      5-min Rain = 0
KCR2 240119Z 16002KT 20/02 A2995 RMK A01 T02040015  RH  028%=      5-min Rain = 0
KCR2 240120Z 14003KT 20/02 A2995 RMK A01 T02010024  RH  031%=      5-min Rain = 0
KCR2 240121Z 14003KT 20/02 A2995 RMK A01 T01970024  RH  032%=      5-min Rain = 0
KCR2 240122Z 14004KT 19/02 A2996 RMK A01 T01940019  RH  031%=      5-min Rain = 0
KCR2 240123Z 14004KT 19/01 A2996 RMK A01 T01930010  RH  029%=      5-min Rain = 0
KCR2 240124Z 15005KT 20/M01 A2996 RMK A01 T01951005  RH  026%=      5-min Rain = 0
KCR2 240125Z 16006KT 20/00 A2996 RMK A01 T02000003  RH  027%=      5-min Rain = 0
KCR2 240126Z 15006KT 20/01 A2996 RMK A01 T02000009  RH  028%=      5-min Rain = 0
KCR2 240127Z 16006KT 20/00 A2996 RMK A01 T01990002  RH  027%=      5-min Rain = 0
KCR2 240128Z 16006KT 20/01 A2996 RMK A01 T01970007  RH  028%=      5-min Rain = 0
KCR2 240129Z 17006KT 20/00 A2996 RMK A01 T01960004  RH  028%=      5-min Rain = 0
KCR2 240130Z 17006KT 20/01 A2996 RMK A01 T01960008  RH  028%=      5-min Rain = 0
KCR2 240131Z 16006KT 20/01 A2996 RMK A01 T01950011  RH  029%=      5-min Rain = 0
KCR2 240132Z 16006KT 19/02 A2996 RMK A01 T01930015  RH  031%=      5-min Rain = 0
KCR2 240133Z 16006KT 19/01 A2996 RMK A01 T01910012  RH  030%=      5-min Rain = 0
KCR2 240134Z 16006KT 19/02 A2996 RMK A01 T01890016  RH  031%=      5-min Rain = 0
KCR2 240135Z 16005KT 19/02 A2996 RMK A01 T01880019  RH  032%=      5-min Rain = 0
KCR2 240136Z 17004KT 19/02 A2996 RMK A01 T01850019  RH  033%=      5-min Rain = 0
KCR2 240137Z 17004KT 18/02 A2996 RMK A01 T01840019  RH  033%=      5-min Rain = 0
KCR2 240138Z 17004KT 18/03 A2996 RMK A01 T01810027  RH  036%=      5-min Rain = 0
KCR2 240139Z 16004KT 18/03 A2996 RMK A01 T01780027  RH  036%=      5-min Rain = 0
KCR2 240140Z 16005KT 18/02 A2996 RMK A01 T01760017  RH  034%=      5-min Rain = 0
KCR2 240141Z 16005KT 18/02 A2996 RMK A01 T01790016  RH  034%=      5-min Rain = 0
KCR2 240142Z 16005KT 18/02 A2996 RMK A01 T01800017  RH  034%=      5-min Rain = 0
KCR2 240143Z 16005KT 18/02 A2996 RMK A01 T01800015  RH  033%=      5-min Rain = 0
KCR2 240144Z 16006KT 18/01 A2996 RMK A01 T01820009  RH  031%=      5-min Rain = 0
KCR2 240145Z 17006KT 19/01 A2996 RMK A01 T01850012  RH  031%=      5-min Rain = 0
KCR2 240146Z 17007KT 19/02 A2996 RMK A01 T01850018  RH  033%=      5-min Rain = 0
KCR2 240147Z 17007KT 18/02 A2996 RMK A01 T01820024  RH  035%=      5-min Rain = 0
KCR2 240148Z 17007KT 18/03 A2997 RMK A01 T01780028  RH  037%=      5-min Rain = 0
KCR2 240149Z 17007KT 18/03 A2997 RMK A01 T01750025  RH  036%=      5-min Rain = 0
KCR2 240150Z 17007KT 17/01 A2997 RMK A01 T01740014  RH  034%=      5-min Rain = 0
KCR2 240151Z 17006KT 18/00 A2997 RMK A01 T01790004  RH  031%=      5-min Rain = 0
KCR2 240152Z 17006KT 18/01 A2997 RMK A01 T01840005  RH  030%=      5-min Rain = 0
KCR2 240153Z 17006KT 19/01 A2997 RMK A01 T01870005  RH  029%=      5-min Rain = 0
KCR2 240154Z 17006KT 19/M00 A2997 RMK A01 T01891001  RH  028%=      5-min Rain = 0
KCR2 240155Z 17006KT 19/00 A2997 RMK A01 T01910003  RH  028%=      5-min Rain = 0
KCR2 240156Z 17006KT 19/01 A2997 RMK A01 T01910011  RH  030%=      5-min Rain = 0
KCR2 240157Z 17006KT 19/02 A2997 RMK A01 T01870018  RH  032%=      5-min Rain = 0
KCR2 240158Z 17007KT 18/02 A2997 RMK A01 T01820019  RH  034%=      5-min Rain = 0
KCR2 240159Z 17007KT 18/02 A2997 RMK A01 T01780019  RH  034%=      5-min Rain = 0
KCR2 240200Z 17007KT 18/02 A2997 RMK A01 T01760020  RH  035%=      5-min Rain = 0
KCR2 240201Z 17007KT 17/02 A2997 RMK A01 T01740015  RH  034%=      5-min Rain = 0
KCR2 240202Z 18007KT 18/01 A2997 RMK A01 T01750014  RH  034%=      5-min Rain = 0
KCR2 240203Z 17007KT 18/01 A2997 RMK A01 T01760014  RH  034%=      5-min Rain = 0
KCR2 240204Z 17007KT 18/01 A2997 RMK A01 T01760014  RH  034%=      5-min Rain = 0
KCR2 240205Z 17007KT 18/02 A2998 RMK A01 T01750019  RH  035%=      5-min Rain = 0
KCR2 240206Z 17007KT 17/02 A2998 RMK A01 T01730018  RH  035%=      5-min Rain = 0
KCR2 240207Z 17007KT 17/02 A2998 RMK A01 T01710018  RH  036%=      5-min Rain = 0
KCR2 240208Z 17007KT 17/02 A2998 RMK A01 T01710018  RH  036%=      5-min Rain = 0
KCR2 240209Z 17007KT 17/02 A2998 RMK A01 T01700016  RH  035%=      5-min Rain = 0
KCR2 240210Z 17008KT 17/01 A2998 RMK A01 T01700014  RH  035%=      5-min Rain = 0
KCR2 240211Z 17008KT 17/01 A2998 RMK A01 T01710010  RH  034%=      5-min Rain = 0
KCR2 240212Z 17007KT 17/01 A2998 RMK A01 T01730008  RH  033%=      5-min Rain = 0
KCR2 240213Z 17008KT 17/01 A2998 RMK A01 T01740007  RH  032%=      5-min Rain = 0
KCR2 240214Z 17008KT 17/01 A2998 RMK A01 T01740010  RH  033%=      5-min Rain = 0
KCR2 240215Z 17008KT 17/01 A2998 RMK A01 T01730009  RH  033%=      5-min Rain = 0
KCR2 240216Z 17007KT 17/01 A2998 RMK A01 T01720007  RH  033%=      5-min Rain = 0
KCR2 240217Z 18007KT 17/01 A2998 RMK A01 T01730007  RH  032%=      5-min Rain = 0
KCR2 240218Z 18007KT 17/01 A2998 RMK A01 T01730006  RH  032%=      5-min Rain = 0
KCR2 240219Z 18007KT 17/01 A2998 RMK A01 T01740005  RH  032%=      5-min Rain = 0
KCR2 240220Z 18007KT 17/01 A2998 RMK A01 T01740006  RH  032%=      5-min Rain = 0
KCR2 240221Z 18006KT 17/00 A2998 RMK A01 T01740004  RH  031%=      5-min Rain = 0
KCR2 240222Z 18006KT 18/00 A2998 RMK A01 T01760001  RH  031%=      5-min Rain = 0
KCR2 240223Z 18006KT 18/00 A2998 RMK A01 T017700-0  RH  030%=      5-min Rain = 0
KCR2 240224Z 18006KT 18/00 A2998 RMK A01 T01770001  RH  030%=      5-min Rain = 0
KCR2 240225Z 18007KT 18/00 A2998 RMK A01 T01770004  RH  031%=      5-min Rain = 0
KCR2 240226Z 18006KT 18/01 A2999 RMK A01 T01750008  RH  032%=      5-min Rain = 0
KCR2 240227Z 18007KT 17/01 A2999 RMK A01 T01730008  RH  033%=      5-min Rain = 0
KCR2 240228Z 18007KT 17/01 A2999 RMK A01 T01720008  RH  033%=      5-min Rain = 0
KCR2 240229Z 18007KT 17/01 A2999 RMK A01 T01710007  RH  033%=      5-min Rain = 0
KCR2 240230Z 18008KT 17/01 A2999 RMK A01 T01710005  RH  033%=      5-min Rain = 0
KCR2 240231Z 18009KT 17/00 A2999 RMK A01 T01730001  RH  031%=      5-min Rain = 0
KCR2 240232Z 18008KT 18/00 A2999 RMK A01 T01760000  RH  030%=      5-min Rain = 0
KCR2 240233Z 18008KT 18/00 A2999 RMK A01 T01770001  RH  030%=      5-min Rain = 0
KCR2 240234Z 18008KT 18/M00 A2999 RMK A01 T01781002  RH  030%=      5-min Rain = 0
KCR2 240235Z 18008KT 18/M00 A2999 RMK A01 T01801001  RH  029%=      5-min Rain = 0
KCR2 240236Z 18008KT 18/M00 A2999 RMK A01 T01801001  RH  030%=      5-min Rain = 0
KCR2 240237Z 18008KT 18/M00 A2999 RMK A01 T01791001  RH  030%=      5-min Rain = 0
KCR2 240238Z 18008KT 18/M00 A2999 RMK A01 T01801002  RH  029%=      5-min Rain = 0
KCR2 240239Z 18009KT 18/00 A2999 RMK A01 T01790001  RH  030%=      5-min Rain = 0
KCR2 240240Z 18009KT 18/00 A2999 RMK A01 T01770002  RH  031%=      5-min Rain = 0
KCR2 240241Z 18009KT 18/M00 A2999 RMK A01 T01771002  RH  030%=      5-min Rain = 0
KCR2 240242Z 18008KT 18/M00 A2999 RMK A01 T01781004  RH  029%=      5-min Rain = 0
KCR2 240243Z 18008KT 18/M00 A2999 RMK A01 T01791004  RH  029%=      5-min Rain = 0
KCR2 240244Z 18008KT 18/M01 A2999 RMK A01 T01791005  RH  029%=      5-min Rain = 0
KCR2 240245Z 18008KT 18/M01 A2999 RMK A01 T01801006  RH  028%=      5-min Rain = 0
KCR2 240246Z 18008KT 18/M01 A2999 RMK A01 T01801006  RH  028%=      5-min Rain = 0
KCR2 240247Z 18008KT 18/M01 A2999 RMK A01 T01811007  RH  028%=      5-min Rain = 0
KCR2 240248Z 18008KT 18/M01 A2999 RMK A01 T01811008  RH  028%=      5-min Rain = 0
KCR2 240249Z 18008KT 18/M01 A2999 RMK A01 T01811006  RH  028%=      5-min Rain = 0
KCR2 240250Z 17008KT 18/M00 A2999 RMK A01 T01801002  RH  029%=      5-min Rain = 0
KCR2 240251Z 18009KT 18/M00 A2999 RMK A01 T01781002  RH  030%=      5-min Rain = 0
KCR2 240252Z 18008KT 18/M00 A2999 RMK A01 T01771003  RH  030%=      5-min Rain = 0
KCR2 240253Z 18008KT 18/M01 A2999 RMK A01 T01771005  RH  029%=      5-min Rain = 0
KCR2 240254Z 18008KT 18/M00 A2999 RMK A01 T01771003  RH  030%=      5-min Rain = 0
KCR2 240255Z 18008KT 18/M00 A2999 RMK A01 T01761001  RH  030%=      5-min Rain = 0
KCR2 240256Z 18008KT 18/M00 A30 RMK A01 T01751002  RH  030%=      5-min Rain = 0
KCR2 240257Z 18007KT 18/M01 A30 RMK A01 T01751005  RH  030%=      5-min Rain = 0
KCR2 240258Z 18007KT 18/M00 A30 RMK A01 T01751003  RH  030%=      5-min Rain = 0
KCR2 240259Z 18008KT 17/M00 A30 RMK A01 T01741001  RH  031%=      5-min Rain = 0
KCR2 240300Z 18008KT 17/00 A30 RMK A01 T01730001  RH  031%=      5-min Rain = 0
KCR2 240301Z 18007KT 17/00 A30 RMK A01 T01710002  RH  032%=      5-min Rain = 0
KCR2 240302Z 18008KT 17/00 A30 RMK A01 T01700001  RH  032%=      5-min Rain = 0
KCR2 240303Z 18008KT 17/00 A30 RMK A01 T01700000  RH  032%=      5-min Rain = 0
KCR2 240304Z 18008KT 17/M00 A30 RMK A01 T01701001  RH  031%=      5-min Rain = 0
KCR2 240305Z 18008KT 17/M01 A30 RMK A01 T01701005  RH  030%=      5-min Rain = 0
KCR2 240306Z 18009KT 17/M01 A30 RMK A01 T01741006  RH  029%=      5-min Rain = 0
KCR2 240307Z 18008KT 18/M00 A30 RMK A01 T01751003  RH  030%=      5-min Rain = 0
KCR2 240308Z 18008KT 18/M01 A30 RMK A01 T01751006  RH  029%=      5-min Rain = 0
KCR2 240309Z 18008KT 18/M00 A30 RMK A01 T01761004  RH  030%=      5-min Rain = 0
KCR2 240310Z 17008KT 18/M00 A30 RMK A01 T01751004  RH  030%=      5-min Rain = 0
KCR2 240311Z 17009KT 18/M00 A30 RMK A01 T01751004  RH  030%=      5-min Rain = 0
KCR2 240312Z 18009KT 17/M00 A30 RMK A01 T01741004  RH  030%=      5-min Rain = 0
KCR2 240313Z 18008KT 17/M01 A3001 RMK A01 T01741007  RH  029%=      5-min Rain = 0
KCR2 240314Z 17009KT 18/M01 A3001 RMK A01 T01751005  RH  030%=      5-min Rain = 0
KCR2 240315Z 18009KT 18/M01 A3001 RMK A01 T01751005  RH  030%=      5-min Rain = 0
KCR2 240316Z 18009KT 18/M01 A3001 RMK A01 T01751005  RH  030%=      5-min Rain = 0
KCR2 240317Z 18010KT 17/M01 A3001 RMK A01 T01741006  RH  029%=      5-min Rain = 0
KCR2 240318Z 18010KT 18/M01 A3001 RMK A01 T01751008  RH  029%=      5-min Rain = 0
KCR2 240319Z 18010KT 18/M01 A3001 RMK A01 T01771011  RH  028%=      5-min Rain = 0
KCR2 240320Z 18009KT 18/M01 A3001 RMK A01 T01801011  RH  027%=      5-min Rain = 0
KCR2 240321Z 18009KT 18/M01 A3001 RMK A01 T01811011  RH  027%=      5-min Rain = 0
KCR2 240322Z 18007KT 18/M01 A3001 RMK A01 T01811010  RH  027%=      5-min Rain = 0
KCR2 240323Z 18008KT 18/M01 A3001 RMK A01 T01791008  RH  028%=      5-min Rain = 0
KCR2 240324Z 17008KT 18/M01 A3001 RMK A01 T01771005  RH  029%=      5-min Rain = 0
KCR2 240325Z 17007KT 18/M01 A3001 RMK A01 T01751008  RH  029%=      5-min Rain = 0
KCR2 240326Z 17009KT 17/M01 A3001 RMK A01 T01741007  RH  029%=      5-min Rain = 0
KCR2 240327Z 17009KT 17/M01 A3001 RMK A01 T01741007  RH  029%=      5-min Rain = 0
KCR2 240328Z 17008KT 17/M01 A3001 RMK A01 T01741009  RH  029%=      5-min Rain = 0
KCR2 240329Z 17009KT 18/M01 A3001 RMK A01 T01751008  RH  029%=      5-min Rain = 0
KCR2 240330Z 18009KT 18/M01 A3001 RMK A01 T01751008  RH  029%=      5-min Rain = 0
KCR2 240331Z 17009KT 18/M01 A3001 RMK A01 T01751009  RH  029%=      5-min Rain = 0
KCR2 240332Z 18009KT 18/M01 A3002 RMK A01 T01761009  RH  029%=      5-min Rain = 0
KCR2 240333Z 18009KT 18/M01 A3002 RMK A01 T01761010  RH  028%=      5-min Rain = 0
KCR2 240334Z 18009KT 18/M01 A3002 RMK A01 T01771010  RH  028%=      5-min Rain = 0
KCR2 240335Z 18008KT 18/M01 A3002 RMK A01 T01771012  RH  028%=      5-min Rain = 0
KCR2 240336Z 18008KT 18/M01 A3002 RMK A01 T01791011  RH  027%=      5-min Rain = 0
KCR2 240337Z 18008KT 18/M01 A3002 RMK A01 T01791011  RH  027%=      5-min Rain = 0
KCR2 240338Z 18008KT 18/M01 A3002 RMK A01 T01791011  RH  028%=      5-min Rain = 0
KCR2 240339Z 18008KT 18/M01 A3002 RMK A01 T01791010  RH  028%=      5-min Rain = 0
KCR2 240340Z 18008KT 18/M01 A3002 RMK A01 T01781009  RH  028%=      5-min Rain = 0
KCR2 240341Z 18009KT 18/M01 A3002 RMK A01 T01771009  RH  028%=      5-min Rain = 0
KCR2 240342Z 18008KT 18/M01 A3002 RMK A01 T01761009  RH  028%=      5-min Rain = 0
KCR2 240343Z 18009KT 18/M01 A3002 RMK A01 T01761008  RH  029%=      5-min Rain = 0
KCR2 240344Z 18008KT 18/M01 A3002 RMK A01 T01751007  RH  029%=      5-min Rain = 0
KCR2 240345Z 18008KT 17/M01 A3002 RMK A01 T01741007  RH  029%=      5-min Rain = 0
KCR2 240346Z 18008KT 17/M01 A3002 RMK A01 T01741007  RH  029%=      5-min Rain = 0
KCR2 240347Z 18008KT 17/M01 A3002 RMK A01 T01731007  RH  030%=      5-min Rain = 0
KCR2 240348Z 18008KT 17/M01 A3002 RMK A01 T01721006  RH  030%=      5-min Rain = 0
KCR2 240349Z 18008KT 17/M01 A3002 RMK A01 T01711005  RH  030%=      5-min Rain = 0
KCR2 240350Z 18008KT 17/M01 A3002 RMK A01 T01711005  RH  030%=      5-min Rain = 0
KCR2 240351Z 18008KT 17/M01 A3002 RMK A01 T01701006  RH  030%=      5-min Rain = 0
KCR2 240352Z 18008KT 17/M01 A3002 RMK A01 T01701006  RH  030%=      5-min Rain = 0
KCR2 240353Z 19008KT 17/M01 A3002 RMK A01 T01701006  RH  030%=      5-min Rain = 0
KCR2 240354Z 19007KT 17/M01 A3002 RMK A01 T01701007  RH  030%=      5-min Rain = 0
KCR2 240355Z 19007KT 17/M01 A3002 RMK A01 T01721008  RH  030%=      5-min Rain = 0
KCR2 240356Z 19008KT 17/M01 A3002 RMK A01 T01721008  RH  029%=      5-min Rain = 0
KCR2 240357Z 19008KT 17/M01 A3002 RMK A01 T01731008  RH  029%=      5-min Rain = 0
KCR2 240358Z 19009KT 17/M01 A3002 RMK A01 T01731009  RH  029%=      5-min Rain = 0
KCR2 240359Z 19009KT 18/M01 A3002 RMK A01 T01751011  RH  028%=      5-min Rain = 0
KCR2 240400Z 19010KT 18/M01 A3002 RMK A01 T01751012  RH  028%=      5-min Rain = 0
KCR2 240401Z 19011KT 18/M01 A3002 RMK A01 T01771013  RH  027%=      5-min Rain = 0
KCR2 240402Z 19012KT 18/M02 A3003 RMK A01 T01791017  RH  026%=      5-min Rain = 0
KCR2 240403Z 19012KT 18/M02 A3003 RMK A01 T01811016  RH  026%=      5-min Rain = 0
KCR2 240404Z 18012KT 18/M02 A3003 RMK A01 T01821018  RH  026%=      5-min Rain = 0
KCR2 240405Z 19011KT 19/M02 A3003 RMK A01 T01851017  RH  025%=      5-min Rain = 0
KCR2 240406Z 19012KT 19/M01 A3003 RMK A01 T01881014  RH  025%=      5-min Rain = 0
KCR2 240407Z 19012KT 19/M01 A3003 RMK A01 T01901009  RH  026%=      5-min Rain = 0
KCR2 240408Z 18011KT 19/M01 A3003 RMK A01 T01901008  RH  026%=      5-min Rain = 0
KCR2 240409Z 18013KT 19/M01 A3003 RMK A01 T01901008  RH  026%=      5-min Rain = 0
KCR2 240410Z 18013KT 19/M01 A3003 RMK A01 T01901007  RH  026%=      5-min Rain = 0
KCR2 240411Z 18011KT 19/M01 A3003 RMK A01 T01891006  RH  027%=      5-min Rain = 0
KCR2 240412Z 18013KT 19/M01 A3003 RMK A01 T01881005  RH  027%=      5-min Rain = 0
KCR2 240413Z 19012KT 19/00 A3003 RMK A01 T01880001  RH  028%=      5-min Rain = 0
KCR2 240414Z 19012KT 19/01 A3003 RMK A01 T01880007  RH  030%=      5-min Rain = 0
KCR2 240415Z 18012KT 19/01 A3003 RMK A01 T01880013  RH  031%=      5-min Rain = 0
KCR2 240416Z 18012KT 19/01 A3003 RMK A01 T01880013  RH  031%=      5-min Rain = 0
KCR2 240417Z 18012KT 19/01 A3003 RMK A01 T01870013  RH  031%=      5-min Rain = 0
KCR2 240418Z 18011KT 19/01 A3003 RMK A01 T01870012  RH  031%=      5-min Rain = 0
KCR2 240419Z 18011KT 19/01 A3003 RMK A01 T01850010  RH  031%=      5-min Rain = 0
KCR2 240420Z 18010KT 18/01 A3003 RMK A01 T01840011  RH  031%=      5-min Rain = 0
KCR2 240421Z 18009KT 18/01 A3003 RMK A01 T01830013  RH  032%=      5-min Rain = 0
KCR2 240422Z 19010KT 18/01 A3003 RMK A01 T01820014  RH  032%=      5-min Rain = 0
KCR2 240423Z 19010KT 18/02 A3003 RMK A01 T01820015  RH  032%=      5-min Rain = 0
KCR2 240424Z 19010KT 18/02 A3003 RMK A01 T01830015  RH  032%=      5-min Rain = 0
KCR2 240425Z 18010KT 18/02 A3003 RMK A01 T01830016  RH  033%=      5-min Rain = 0
KCR2 240426Z 18009KT 18/02 A3003 RMK A01 T01830017  RH  033%=      5-min Rain = 0
KCR2 240427Z 18008KT 18/02 A3003 RMK A01 T01820019  RH  033%=      5-min Rain = 0
KCR2 240428Z 18009KT 18/02 A3003 RMK A01 T01810020  RH  034%=      5-min Rain = 0
KCR2 240429Z 18009KT 18/02 A3003 RMK A01 T01800021  RH  035%=      5-min Rain = 0
KCR2 240430Z 18009KT 18/02 A3003 RMK A01 T01800022  RH  035%=      5-min Rain = 0
KCR2 240431Z 18010KT 18/02 A3003 RMK A01 T01790022  RH  035%=      5-min Rain = 0
KCR2 240432Z 18010KT 18/02 A3003 RMK A01 T01790021  RH  035%=      5-min Rain = 0
KCR2 240433Z 18010KT 18/02 A3003 RMK A01 T01810020  RH  034%=      5-min Rain = 0
KCR2 240434Z 18010KT 18/02 A3003 RMK A01 T01820021  RH  034%=      5-min Rain = 0
KCR2 240435Z 18010KT 18/02 A3003 RMK A01 T01830024  RH  035%=      5-min Rain = 0
KCR2 240436Z 18011KT 18/03 A3003 RMK A01 T01830026  RH  035%=      5-min Rain = 0
KCR2 240437Z 18010KT 19/03 A3003 RMK A01 T01850027  RH  035%=      5-min Rain = 0
KCR2 240438Z 18011KT 19/03 A3003 RMK A01 T01850026  RH  035%=      5-min Rain = 0
KCR2 240439Z 18011KT 18/03 A3003 RMK A01 T01840027  RH  035%=      5-min Rain = 0
KCR2 240440Z 18011KT 18/03 A3003 RMK A01 T01840028  RH  035%=      5-min Rain = 0
KCR2 240441Z 18011KT 18/03 A3003 RMK A01 T01840028  RH  035%=      5-min Rain = 0
KCR2 240442Z 18012KT 18/03 A3003 RMK A01 T01840029  RH  035%=      5-min Rain = 0
KCR2 240443Z 18011KT 18/03 A3003 RMK A01 T01840030  RH  036%=      5-min Rain = 0
KCR2 240444Z 18012KT 18/03 A3003 RMK A01 T01830031  RH  036%=      5-min Rain = 0
KCR2 240445Z 18012KT 18/03 A3003 RMK A01 T01820032  RH  037%=      5-min Rain = 0
KCR2 240446Z 18012KT 18/03 A3003 RMK A01 T01830034  RH  037%=      5-min Rain = 0
KCR2 240447Z 18012KT 18/04 A3003 RMK A01 T01830036  RH  038%=      5-min Rain = 0
KCR2 240448Z 18012KT 18/04 A3003 RMK A01 T01830038  RH  038%=      5-min Rain = 0
KCR2 240449Z 18012KT 18/04 A3003 RMK A01 T01830040  RH  039%=      5-min Rain = 0
KCR2 240450Z 18013KT 18/04 A3003 RMK A01 T01840043  RH  039%=      5-min Rain = 0
KCR2 240451Z 18013KT 19/05 A3003 RMK A01 T01850045  RH  040%=      5-min Rain = 0
KCR2 240452Z 18013KT 19/05 A3003 RMK A01 T01860049  RH  040%=      5-min Rain = 0
KCR2 240453Z 18013KT 19/05 A3003 RMK A01 T01860052  RH  041%=      5-min Rain = 0
KCR2 240454Z 18013KT 19/05 A3003 RMK A01 T01870054  RH  042%=      5-min Rain = 0
KCR2 240455Z 18013KT 19/06 A3003 RMK A01 T01870056  RH  042%=      5-min Rain = 0
KCR2 240456Z 17014KT 19/06 A3003 RMK A01 T01870058  RH  043%=      5-min Rain = 0
KCR2 240457Z 17013KT 19/06 A3003 RMK A01 T01880060  RH  043%=      5-min Rain = 0
KCR2 240458Z 17013KT 19/06 A3003 RMK A01 T01880062  RH  044%=      5-min Rain = 0
KCR2 240459Z 18013KT 19/06 A3003 RMK A01 T01890063  RH  044%=      5-min Rain = 0

Page generated in 0.1193 seconds.